Observation data for Persimmon Gap on 06/23/2019      Previous  Date  Next       Current Mesonet Observations  Soil Data  Daily Summary Page  Observations in Plain Language
KPG1 230500Z 02013KT 27/20 A2987 RMK A01 T02710201  RH  065%=      5-min Rain = 0
KPG1 230501Z 02012KT 27/20 A2987 RMK A01 T02710201  RH  066%=      5-min Rain = 0
KPG1 230502Z 02013KT 27/20 A2986 RMK A01 T02710202  RH  066%=      5-min Rain = 0
KPG1 230503Z 02013KT 27/20 A2986 RMK A01 T02710201  RH  066%=      5-min Rain = 0
KPG1 230504Z 02013KT 27/20 A2986 RMK A01 T02710202  RH  066%=      5-min Rain = 0
KPG1 230505Z 01011KT 27/20 A2986 RMK A01 T02710201  RH  066%=      5-min Rain = 0
KPG1 230506Z 01012KT 27/20 A2986 RMK A01 T02710201  RH  066%=      5-min Rain = 0
KPG1 230507Z 02012KT 27/20 A2986 RMK A01 T02700201  RH  066%=      5-min Rain = 0
KPG1 230508Z 02012KT 27/20 A2986 RMK A01 T02700202  RH  066%=      5-min Rain = 0
KPG1 230509Z 02012KT 27/20 A2986 RMK A01 T02700201  RH  066%=      5-min Rain = 0
KPG1 230510Z 03013KT 27/20 A2986 RMK A01 T02700201  RH  066%=      5-min Rain = 0
KPG1 230511Z 02012KT 27/20 A2987 RMK A01 T02700201  RH  066%=      5-min Rain = 0
KPG1 230512Z 02011KT 27/20 A2987 RMK A01 T02690201  RH  066%=      5-min Rain = 0
KPG1 230513Z 02012KT 27/20 A2987 RMK A01 T02690201  RH  067%=      5-min Rain = 0
KPG1 230514Z 02013KT 27/20 A2987 RMK A01 T02690202  RH  067%=      5-min Rain = 0
KPG1 230515Z 02012KT 27/20 A2987 RMK A01 T02680201  RH  067%=      5-min Rain = 0
KPG1 230516Z 02012KT 27/20 A2987 RMK A01 T02680201  RH  067%=      5-min Rain = 0
KPG1 230517Z 02012KT 27/20 A2987 RMK A01 T02680201  RH  067%=      5-min Rain = 0
KPG1 230518Z 02013KT 27/20 A2987 RMK A01 T02680201  RH  067%=      5-min Rain = 0
KPG1 230519Z 02012KT 27/20 A2987 RMK A01 T02680201  RH  067%=      5-min Rain = 0
KPG1 230520Z 02012KT 27/20 A2987 RMK A01 T02680201  RH  067%=      5-min Rain = 0
KPG1 230521Z 02012KT 27/20 A2987 RMK A01 T02680201  RH  067%=      5-min Rain = 0
KPG1 230522Z 02012KT 27/20 A2987 RMK A01 T02680201  RH  067%=      5-min Rain = 0
KPG1 230523Z 01011KT 27/20 A2987 RMK A01 T02680201  RH  067%=      5-min Rain = 0
KPG1 230524Z 02012KT 27/20 A2987 RMK A01 T02680201  RH  067%=      5-min Rain = 0
KPG1 230525Z 01013KT 27/20 A2987 RMK A01 T02670201  RH  067%=      5-min Rain = 0
KPG1 230526Z 01011KT 27/20 A2987 RMK A01 T02680201  RH  067%=      5-min Rain = 0
KPG1 230527Z 01012KT 27/20 A2987 RMK A01 T02680201  RH  067%=      5-min Rain = 0
KPG1 230528Z 01012KT 27/20 A2987 RMK A01 T02670201  RH  067%=      5-min Rain = 0
KPG1 230529Z 01013KT 27/20 A2987 RMK A01 T02670201  RH  067%=      5-min Rain = 0
KPG1 230530Z 01013KT 27/20 A2987 RMK A01 T02670201  RH  067%=      5-min Rain = 0
KPG1 230531Z 02013KT 27/20 A2987 RMK A01 T02670201  RH  067%=      5-min Rain = 0
KPG1 230532Z 01013KT 27/20 A2987 RMK A01 T02680201  RH  067%=      5-min Rain = 0
KPG1 230533Z 01013KT 27/20 A2987 RMK A01 T02680201  RH  067%=      5-min Rain = 0
KPG1 230534Z 00015KT 27/20 A2987 RMK A01 T02680201  RH  067%=      5-min Rain = 0
KPG1 230535Z 00015KT 27/20 A2987 RMK A01 T02680201  RH  067%=      5-min Rain = 0
KPG1 230536Z 00016KT 27/20 A2987 RMK A01 T02680201  RH  067%=      5-min Rain = 0
KPG1 230537Z 01014KT 27/20 A2987 RMK A01 T02680200  RH  066%=      5-min Rain = 0
KPG1 230538Z 01016KT 27/20 A2987 RMK A01 T02690201  RH  066%=      5-min Rain = 0
KPG1 230539Z 01014KT 27/20 A2987 RMK A01 T02680200  RH  066%=      5-min Rain = 0
KPG1 230540Z 01013KT 27/20 A2987 RMK A01 T02690201  RH  066%=      5-min Rain = 0
KPG1 230541Z 01013KT 27/20 A2987 RMK A01 T02680201  RH  066%=      5-min Rain = 0
KPG1 230542Z 01014KT 27/20 A2987 RMK A01 T02680201  RH  067%=      5-min Rain = 0
KPG1 230543Z 02013KT 27/20 A2987 RMK A01 T02680201  RH  067%=      5-min Rain = 0
KPG1 230544Z 02013KT 27/20 A2987 RMK A01 T02680201  RH  067%=      5-min Rain = 0
KPG1 230545Z 02013KT 27/20 A2987 RMK A01 T02680201  RH  067%=      5-min Rain = 0
KPG1 230546Z 01014KT 27/20 A2987 RMK A01 T02680201  RH  067%=      5-min Rain = 0
KPG1 230547Z 01013KT 27/20 A2987 RMK A01 T02680201  RH  067%=      5-min Rain = 0
KPG1 230548Z 01014KT 27/20 A2987 RMK A01 T02680201  RH  067%=      5-min Rain = 0
KPG1 230549Z 01012KT 27/20 A2987 RMK A01 T02680201  RH  067%=      5-min Rain = 0
KPG1 230550Z 01013KT 27/20 A2987 RMK A01 T02680201  RH  067%=      5-min Rain = 0
KPG1 230551Z 01011KT 27/20 A2987 RMK A01 T02680201  RH  067%=      5-min Rain = 0
KPG1 230552Z 01013KT 27/20 A2987 RMK A01 T02680201  RH  067%=      5-min Rain = 0
KPG1 230553Z 00013KT 27/20 A2987 RMK A01 T02670201  RH  067%=      5-min Rain = 0
KPG1 230554Z 36012KT 27/20 A2987 RMK A01 T02670201  RH  067%=      5-min Rain = 0
KPG1 230555Z 00015KT 27/20 A2987 RMK A01 T02680201  RH  067%=      5-min Rain = 0
KPG1 230556Z 36014KT 27/20 A2987 RMK A01 T02680201  RH  067%=      5-min Rain = 0
KPG1 230557Z 00015KT 27/20 A2987 RMK A01 T02680201  RH  067%=      5-min Rain = 0
KPG1 230558Z 01013KT 27/20 A2987 RMK A01 T02690201  RH  066%=      5-min Rain = 0
KPG1 230559Z 00014KT 27/20 A2987 RMK A01 T02690201  RH  066%=      5-min Rain = 0
KPG1 230600Z 00012KT 27/20 A2987 RMK A01 T02690200  RH  066%=      5-min Rain = 0
KPG1 230601Z 36013KT 27/20 A2987 RMK A01 T02690201  RH  066%=      5-min Rain = 0
KPG1 230602Z 01012KT 27/20 A2987 RMK A01 T02690201  RH  066%=      5-min Rain = 0
KPG1 230603Z 01012KT 27/20 A2987 RMK A01 T02680201  RH  067%=      5-min Rain = 0
KPG1 230604Z 36013KT 27/20 A2987 RMK A01 T02680201  RH  067%=      5-min Rain = 0
KPG1 230605Z 00012KT 27/20 A2987 RMK A01 T02680201  RH  067%=      5-min Rain = 0
KPG1 230606Z 00012KT 27/20 A2987 RMK A01 T02670201  RH  067%=      5-min Rain = 0
KPG1 230607Z 01010KT 27/20 A2987 RMK A01 T02670201  RH  067%=      5-min Rain = 0
KPG1 230608Z 01012KT 27/20 A2987 RMK A01 T02670201  RH  067%=      5-min Rain = 0
KPG1 230609Z 01012KT 27/20 A2987 RMK A01 T02670201  RH  067%=      5-min Rain = 0
KPG1 230610Z 01012KT 27/20 A2987 RMK A01 T02670201  RH  067%=      5-min Rain = 0
KPG1 230611Z 01012KT 27/20 A2987 RMK A01 T02670201  RH  067%=      5-min Rain = 0
KPG1 230612Z 01010KT 27/20 A2987 RMK A01 T02670201  RH  067%=      5-min Rain = 0
KPG1 230613Z 00011KT 27/20 A2987 RMK A01 T02670202  RH  067%=      5-min Rain = 0
KPG1 230614Z 00012KT 27/20 A2987 RMK A01 T02660201  RH  067%=      5-min Rain = 0
KPG1 230615Z 36013KT 27/20 A2987 RMK A01 T02670201  RH  067%=      5-min Rain = 0
KPG1 230616Z 36013KT 27/20 A2987 RMK A01 T02670201  RH  067%=      5-min Rain = 0
KPG1 230617Z 00011KT 27/20 A2987 RMK A01 T02670201  RH  067%=      5-min Rain = 0
KPG1 230618Z 00011KT 27/20 A2987 RMK A01 T02660202  RH  068%=      5-min Rain = 0
KPG1 230619Z 00013KT 27/20 A2987 RMK A01 T02670202  RH  068%=      5-min Rain = 0
KPG1 230620Z 00013KT 27/20 A2987 RMK A01 T02660201  RH  068%=      5-min Rain = 0
KPG1 230621Z 01012KT 27/20 A2987 RMK A01 T02660201  RH  067%=      5-min Rain = 0
KPG1 230622Z 01011KT 27/20 A2987 RMK A01 T02670201  RH  067%=      5-min Rain = 0
KPG1 230623Z 01011KT 27/20 A2987 RMK A01 T02670201  RH  067%=      5-min Rain = 0
KPG1 230624Z 01010KT 27/20 A2987 RMK A01 T02670202  RH  067%=      5-min Rain = 0
KPG1 230625Z 02010KT 27/20 A2987 RMK A01 T02660201  RH  068%=      5-min Rain = 0
KPG1 230626Z 01009KT 27/20 A2986 RMK A01 T02660202  RH  068%=      5-min Rain = 0
KPG1 230627Z 01011KT 27/20 A2986 RMK A01 T02660202  RH  068%=      5-min Rain = 0
KPG1 230628Z 01011KT 27/20 A2986 RMK A01 T02660201  RH  068%=      5-min Rain = 0
KPG1 230629Z 01012KT 27/20 A2986 RMK A01 T02660201  RH  068%=      5-min Rain = 0
KPG1 230630Z 02011KT 27/20 A2986 RMK A01 T02660201  RH  067%=      5-min Rain = 0
KPG1 230631Z 02009KT 27/20 A2986 RMK A01 T02660201  RH  067%=      5-min Rain = 0
KPG1 230632Z 01009KT 27/20 A2987 RMK A01 T02660201  RH  068%=      5-min Rain = 0
KPG1 230633Z 02010KT 27/20 A2986 RMK A01 T02650201  RH  068%=      5-min Rain = 0
KPG1 230634Z 02011KT 27/20 A2986 RMK A01 T02650201  RH  068%=      5-min Rain = 0
KPG1 230635Z 01011KT 27/20 A2986 RMK A01 T02650201  RH  068%=      5-min Rain = 0
KPG1 230636Z 02011KT 27/20 A2986 RMK A01 T02650201  RH  068%=      5-min Rain = 0
KPG1 230637Z 01010KT 27/20 A2986 RMK A01 T02650201  RH  068%=      5-min Rain = 0
KPG1 230638Z 01011KT 27/20 A2986 RMK A01 T02650201  RH  068%=      5-min Rain = 0
KPG1 230639Z 00010KT 27/20 A2986 RMK A01 T02660201  RH  068%=      5-min Rain = 0
KPG1 230640Z 01010KT 27/20 A2986 RMK A01 T02660201  RH  068%=      5-min Rain = 0
KPG1 230641Z 00010KT 27/20 A2986 RMK A01 T02650201  RH  068%=      5-min Rain = 0
KPG1 230642Z 00012KT 27/20 A2986 RMK A01 T02650201  RH  068%=      5-min Rain = 0
KPG1 230643Z 36012KT 27/20 A2986 RMK A01 T02650201  RH  068%=      5-min Rain = 0
KPG1 230644Z 01010KT 27/20 A2986 RMK A01 T02650201  RH  068%=      5-min Rain = 0
KPG1 230645Z 01011KT 27/20 A2986 RMK A01 T02650201  RH  068%=      5-min Rain = 0
KPG1 230646Z 01011KT 27/20 A2986 RMK A01 T02650201  RH  068%=      5-min Rain = 0
KPG1 230647Z 01011KT 27/20 A2986 RMK A01 T02650201  RH  068%=      5-min Rain = 0
KPG1 230648Z 01012KT 27/20 A2986 RMK A01 T02650201  RH  068%=      5-min Rain = 0
KPG1 230649Z 01011KT 27/20 A2986 RMK A01 T02660201  RH  068%=      5-min Rain = 0
KPG1 230650Z 01011KT 27/20 A2986 RMK A01 T02660201  RH  068%=      5-min Rain = 0
KPG1 230651Z 02010KT 27/20 A2986 RMK A01 T02660201  RH  068%=      5-min Rain = 0
KPG1 230652Z 01010KT 27/20 A2986 RMK A01 T02660201  RH  068%=      5-min Rain = 0
KPG1 230653Z 02009KT 27/20 A2986 RMK A01 T02650201  RH  068%=      5-min Rain = 0
KPG1 230654Z 01010KT 27/20 A2986 RMK A01 T02650202  RH  068%=      5-min Rain = 0
KPG1 230655Z 01010KT 27/20 A2986 RMK A01 T02650202  RH  068%=      5-min Rain = 0
KPG1 230656Z 02009KT 27/20 A2986 RMK A01 T02650202  RH  068%=      5-min Rain = 0
KPG1 230657Z 01010KT 26/20 A2986 RMK A01 T02640201  RH  069%=      5-min Rain = 0
KPG1 230658Z 02009KT 26/20 A2986 RMK A01 T02630201  RH  069%=      5-min Rain = 0
KPG1 230659Z 02011KT 26/20 A2986 RMK A01 T02630202  RH  069%=      5-min Rain = 0
KPG1 230700Z 02011KT 26/20 A2986 RMK A01 T02630201  RH  069%=      5-min Rain = 0
KPG1 230701Z 02011KT 26/20 A2986 RMK A01 T02640201  RH  069%=      5-min Rain = 0
KPG1 230702Z 02010KT 26/20 A2986 RMK A01 T02640202  RH  069%=      5-min Rain = 0
KPG1 230703Z 02011KT 26/20 A2986 RMK A01 T02630202  RH  069%=      5-min Rain = 0
KPG1 230704Z 03010KT 26/20 A2986 RMK A01 T02630202  RH  069%=      5-min Rain = 0
KPG1 230705Z 03008KT 26/20 A2986 RMK A01 T02630202  RH  069%=      5-min Rain = 0
KPG1 230706Z 02010KT 26/20 A2986 RMK A01 T02610202  RH  070%=      5-min Rain = 0
KPG1 230707Z 02010KT 26/20 A2986 RMK A01 T02610202  RH  070%=      5-min Rain = 0
KPG1 230708Z 03009KT 26/20 A2986 RMK A01 T02610202  RH  070%=      5-min Rain = 0
KPG1 230709Z 03009KT 26/20 A2986 RMK A01 T02610202  RH  070%=      5-min Rain = 0
KPG1 230710Z 03009KT 26/20 A2986 RMK A01 T02610202  RH  070%=      5-min Rain = 0
KPG1 230711Z 03009KT 26/20 A2986 RMK A01 T02590202  RH  071%=      5-min Rain = 0
KPG1 230712Z 03009KT 26/20 A2986 RMK A01 T02570202  RH  071%=      5-min Rain = 0
KPG1 230713Z 03009KT 26/20 A2986 RMK A01 T02560202  RH  072%=      5-min Rain = 0
KPG1 230714Z 04010KT 26/20 A2986 RMK A01 T02550202  RH  072%=      5-min Rain = 0
KPG1 230715Z 03009KT 26/20 A2986 RMK A01 T02550202  RH  072%=      5-min Rain = 0
KPG1 230716Z 04009KT 26/20 A2986 RMK A01 T02550202  RH  073%=      5-min Rain = 0
KPG1 230717Z 04009KT 25/20 A2986 RMK A01 T02540202  RH  073%=      5-min Rain = 0
KPG1 230718Z 04010KT 26/20 A2986 RMK A01 T02550202  RH  073%=      5-min Rain = 0
KPG1 230719Z 05009KT 26/20 A2986 RMK A01 T02550202  RH  072%=      5-min Rain = 0
KPG1 230720Z 04009KT 26/20 A2986 RMK A01 T02560202  RH  072%=      5-min Rain = 0
KPG1 230721Z 04010KT 26/20 A2986 RMK A01 T02560202  RH  072%=      5-min Rain = 0
KPG1 230722Z 05009KT 26/20 A2986 RMK A01 T02560202  RH  072%=      5-min Rain = 0
KPG1 230723Z 05010KT 26/20 A2986 RMK A01 T02560202  RH  072%=      5-min Rain = 0
KPG1 230724Z 04010KT 26/20 A2986 RMK A01 T02560202  RH  072%=      5-min Rain = 0
KPG1 230725Z 04008KT 26/20 A2986 RMK A01 T02570202  RH  072%=      5-min Rain = 0
KPG1 230726Z 03009KT 26/20 A2985 RMK A01 T02570202  RH  072%=      5-min Rain = 0
KPG1 230727Z 04010KT 26/20 A2986 RMK A01 T02560202  RH  072%=      5-min Rain = 0
KPG1 230728Z 04010KT 25/20 A2986 RMK A01 T02540202  RH  073%=      5-min Rain = 0
KPG1 230729Z 04010KT 25/20 A2986 RMK A01 T02540202  RH  073%=      5-min Rain = 0
KPG1 230730Z 04010KT 25/20 A2986 RMK A01 T02530202  RH  073%=      5-min Rain = 0
KPG1 230731Z 03010KT 25/20 A2986 RMK A01 T02530202  RH  073%=      5-min Rain = 0
KPG1 230732Z 03010KT 25/20 A2986 RMK A01 T02530202  RH  074%=      5-min Rain = 0
KPG1 230733Z 03011KT 25/20 A2986 RMK A01 T02530202  RH  074%=      5-min Rain = 0
KPG1 230734Z 02012KT 25/20 A2986 RMK A01 T02530202  RH  073%=      5-min Rain = 0
KPG1 230735Z 02012KT 26/20 A2986 RMK A01 T02550202  RH  073%=      5-min Rain = 0
KPG1 230736Z 02011KT 26/20 A2986 RMK A01 T02570202  RH  072%=      5-min Rain = 0
KPG1 230737Z 03010KT 26/20 A2986 RMK A01 T02590202  RH  071%=      5-min Rain = 0
KPG1 230738Z 03009KT 26/20 A2986 RMK A01 T02590202  RH  071%=      5-min Rain = 0
KPG1 230739Z 03008KT 26/20 A2986 RMK A01 T02590202  RH  071%=      5-min Rain = 0
KPG1 230740Z 04008KT 26/20 A2986 RMK A01 T02580202  RH  071%=      5-min Rain = 0
KPG1 230741Z 04007KT 26/20 A2986 RMK A01 T02560202  RH  072%=      5-min Rain = 0
KPG1 230742Z 04007KT 26/20 A2986 RMK A01 T02550202  RH  073%=      5-min Rain = 0
KPG1 230743Z 05008KT 25/20 A2986 RMK A01 T02540202  RH  073%=      5-min Rain = 0
KPG1 230744Z 04009KT 25/20 A2986 RMK A01 T02530202  RH  073%=      5-min Rain = 0
KPG1 230745Z 05009KT 25/20 A2986 RMK A01 T02540202  RH  073%=      5-min Rain = 0
KPG1 230746Z 04010KT 25/20 A2986 RMK A01 T02540201  RH  072%=      5-min Rain = 0
KPG1 230747Z 03010KT 26/20 A2986 RMK A01 T02560202  RH  072%=      5-min Rain = 0
KPG1 230748Z 03008KT 26/20 A2986 RMK A01 T02570202  RH  071%=      5-min Rain = 0
KPG1 230749Z 02011KT 26/20 A2986 RMK A01 T02570202  RH  071%=      5-min Rain = 0
KPG1 230750Z 02012KT 26/20 A2986 RMK A01 T02570202  RH  072%=      5-min Rain = 0
KPG1 230751Z 01011KT 26/20 A2986 RMK A01 T02570201  RH  071%=      5-min Rain = 0
KPG1 230752Z 01010KT 26/20 A2986 RMK A01 T02580201  RH  071%=      5-min Rain = 0
KPG1 230753Z 01011KT 26/20 A2986 RMK A01 T02580201  RH  071%=      5-min Rain = 0
KPG1 230754Z 02010KT 26/20 A2986 RMK A01 T02580201  RH  071%=      5-min Rain = 0
KPG1 230755Z 02009KT 26/20 A2986 RMK A01 T02580201  RH  071%=      5-min Rain = 0
KPG1 230756Z 01009KT 26/20 A2986 RMK A01 T02590202  RH  071%=      5-min Rain = 0
KPG1 230757Z 03011KT 26/20 A2986 RMK A01 T02590201  RH  071%=      5-min Rain = 0
KPG1 230758Z 02011KT 26/20 A2986 RMK A01 T02590202  RH  070%=      5-min Rain = 0
KPG1 230759Z 03009KT 26/20 A2986 RMK A01 T02590202  RH  071%=      5-min Rain = 0
KPG1 230800Z 03009KT 26/20 A2986 RMK A01 T02570201  RH  071%=      5-min Rain = 0
KPG1 230801Z 04008KT 26/20 A2986 RMK A01 T02550201  RH  072%=      5-min Rain = 0
KPG1 230802Z 03008KT 25/20 A2986 RMK A01 T02530202  RH  073%=      5-min Rain = 0
KPG1 230803Z 02008KT 25/20 A2986 RMK A01 T02520202  RH  074%=      5-min Rain = 0
KPG1 230804Z 03009KT 25/20 A2986 RMK A01 T02510202  RH  074%=      5-min Rain = 0
KPG1 230805Z 02009KT 25/20 A2986 RMK A01 T02510202  RH  074%=      5-min Rain = 0
KPG1 230806Z 02009KT 25/20 A2986 RMK A01 T02510202  RH  074%=      5-min Rain = 0
KPG1 230807Z 02009KT 25/20 A2986 RMK A01 T02510201  RH  074%=      5-min Rain = 0
KPG1 230808Z 02010KT 25/20 A2986 RMK A01 T02540201  RH  073%=      5-min Rain = 0
KPG1 230809Z 03011KT 26/20 A2986 RMK A01 T02550201  RH  072%=      5-min Rain = 0
KPG1 230810Z 02011KT 26/20 A2986 RMK A01 T02560201  RH  072%=      5-min Rain = 0
KPG1 230811Z 03011KT 26/20 A2986 RMK A01 T02570201  RH  071%=      5-min Rain = 0
KPG1 230812Z 02010KT 26/20 A2986 RMK A01 T02560201  RH  072%=      5-min Rain = 0
KPG1 230813Z 02010KT 26/20 A2986 RMK A01 T02550200  RH  072%=      5-min Rain = 0
KPG1 230814Z 02010KT 26/20 A2986 RMK A01 T02560200  RH  071%=      5-min Rain = 0
KPG1 230815Z 01012KT 26/20 A2986 RMK A01 T02560200  RH  071%=      5-min Rain = 0
KPG1 230816Z 02010KT 26/20 A2986 RMK A01 T02570200  RH  071%=      5-min Rain = 0
KPG1 230817Z 02011KT 26/20 A2986 RMK A01 T02580200  RH  070%=      5-min Rain = 0
KPG1 230818Z 02010KT 26/20 A2986 RMK A01 T02580200  RH  070%=      5-min Rain = 0
KPG1 230819Z 04009KT 26/20 A2986 RMK A01 T02580200  RH  070%=      5-min Rain = 0
KPG1 230820Z 04010KT 26/20 A2986 RMK A01 T02580200  RH  070%=      5-min Rain = 0
KPG1 230821Z 04009KT 26/20 A2986 RMK A01 T02560200  RH  071%=      5-min Rain = 0
KPG1 230822Z 04008KT 25/20 A2986 RMK A01 T02540200  RH  072%=      5-min Rain = 0
KPG1 230823Z 04009KT 25/20 A2986 RMK A01 T02520200  RH  073%=      5-min Rain = 0
KPG1 230824Z 04010KT 25/20 A2986 RMK A01 T02520200  RH  073%=      5-min Rain = 0
KPG1 230825Z 04011KT 25/20 A2986 RMK A01 T02520200  RH  073%=      5-min Rain = 0
KPG1 230826Z 06010KT 25/20 A2986 RMK A01 T02520200  RH  073%=      5-min Rain = 0
KPG1 230827Z 06010KT 25/20 A2986 RMK A01 T02530200  RH  073%=      5-min Rain = 0
KPG1 230828Z 05010KT 25/20 A2986 RMK A01 T02540200  RH  072%=      5-min Rain = 0
KPG1 230829Z 06010KT 26/20 A2986 RMK A01 T02550200  RH  072%=      5-min Rain = 0
KPG1 230830Z 05010KT 26/20 A2986 RMK A01 T02560200  RH  071%=      5-min Rain = 0
KPG1 230831Z 05009KT 26/20 A2986 RMK A01 T02560200  RH  071%=      5-min Rain = 0
KPG1 230832Z 05009KT 26/20 A2986 RMK A01 T02560200  RH  071%=      5-min Rain = 0
KPG1 230833Z 06009KT 26/20 A2986 RMK A01 T02560200  RH  071%=      5-min Rain = 0
KPG1 230834Z 06010KT 26/20 A2986 RMK A01 T02550200  RH  071%=      5-min Rain = 0
KPG1 230835Z 05009KT 26/20 A2986 RMK A01 T02550200  RH  072%=      5-min Rain = 0
KPG1 230836Z 05008KT 26/20 A2986 RMK A01 T02550200  RH  072%=      5-min Rain = 0
KPG1 230837Z 05009KT 26/20 A2986 RMK A01 T02550200  RH  072%=      5-min Rain = 0
KPG1 230838Z 05009KT 26/20 A2986 RMK A01 T02550200  RH  072%=      5-min Rain = 0
KPG1 230839Z 05009KT 26/20 A2986 RMK A01 T02550200  RH  072%=      5-min Rain = 0
KPG1 230840Z 05010KT 25/20 A2986 RMK A01 T02540200  RH  072%=      5-min Rain = 0
KPG1 230841Z 05010KT 25/20 A2986 RMK A01 T02530200  RH  072%=      5-min Rain = 0
KPG1 230842Z 06009KT 25/20 A2986 RMK A01 T02530200  RH  072%=      5-min Rain = 0
KPG1 230843Z 07010KT 25/20 A2986 RMK A01 T02540200  RH  072%=      5-min Rain = 0
KPG1 230844Z 07010KT 25/20 A2986 RMK A01 T02540200  RH  072%=      5-min Rain = 0
KPG1 230845Z 07009KT 26/20 A2986 RMK A01 T02550200  RH  072%=      5-min Rain = 0
KPG1 230846Z 06011KT 25/20 A2986 RMK A01 T02540200  RH  072%=      5-min Rain = 0
KPG1 230847Z 06011KT 26/20 A2986 RMK A01 T02550199  RH  071%=      5-min Rain = 0
KPG1 230848Z 07011KT 26/20 A2986 RMK A01 T02550199  RH  071%=      5-min Rain = 0
KPG1 230849Z 07011KT 26/20 A2986 RMK A01 T02550199  RH  071%=      5-min Rain = 0
KPG1 230850Z 06011KT 26/20 A2986 RMK A01 T02560199  RH  071%=      5-min Rain = 0
KPG1 230851Z 07011KT 26/20 A2986 RMK A01 T02570200  RH  071%=      5-min Rain = 0
KPG1 230852Z 07011KT 26/20 A2986 RMK A01 T02560200  RH  071%=      5-min Rain = 0
KPG1 230853Z 07010KT 26/20 A2986 RMK A01 T02550200  RH  071%=      5-min Rain = 0
KPG1 230854Z 07011KT 26/20 A2986 RMK A01 T02550200  RH  072%=      5-min Rain = 0
KPG1 230855Z 07012KT 25/20 A2986 RMK A01 T02540200  RH  072%=      5-min Rain = 0
KPG1 230856Z 07010KT 25/20 A2986 RMK A01 T02540200  RH  072%=      5-min Rain = 0
KPG1 230857Z 07011KT 25/20 A2986 RMK A01 T02540200  RH  072%=      5-min Rain = 0
KPG1 230858Z 07010KT 26/20 A2986 RMK A01 T02550199  RH  071%=      5-min Rain = 0
KPG1 230859Z 07010KT 26/20 A2986 RMK A01 T02560200  RH  071%=      5-min Rain = 0
KPG1 230900Z 06011KT 26/20 A2986 RMK A01 T02560199  RH  071%=      5-min Rain = 0
KPG1 230901Z 06010KT 26/20 A2986 RMK A01 T02560199  RH  071%=      5-min Rain = 0
KPG1 230902Z 07010KT 26/20 A2986 RMK A01 T02560199  RH  070%=      5-min Rain = 0
KPG1 230903Z 06011KT 26/20 A2986 RMK A01 T02570199  RH  070%=      5-min Rain = 0
KPG1 230904Z 06011KT 26/20 A2986 RMK A01 T02570199  RH  070%=      5-min Rain = 0
KPG1 230905Z 05011KT 26/20 A2986 RMK A01 T02570199  RH  070%=      5-min Rain = 0
KPG1 230906Z 05009KT 26/20 A2986 RMK A01 T02570199  RH  070%=      5-min Rain = 0
KPG1 230907Z 05008KT 26/20 A2987 RMK A01 T02570199  RH  071%=      5-min Rain = 0
KPG1 230908Z 04009KT 26/20 A2987 RMK A01 T02560199  RH  071%=      5-min Rain = 0
KPG1 230909Z 04010KT 26/20 A2987 RMK A01 T02550199  RH  071%=      5-min Rain = 0
KPG1 230910Z 06008KT 26/20 A2987 RMK A01 T02550199  RH  071%=      5-min Rain = 0
KPG1 230911Z 07009KT 26/20 A2987 RMK A01 T02550199  RH  072%=      5-min Rain = 0
KPG1 230912Z 07009KT 25/20 A2987 RMK A01 T02540199  RH  072%=      5-min Rain = 0
KPG1 230913Z 07009KT 25/20 A2987 RMK A01 T02530199  RH  072%=      5-min Rain = 0
KPG1 230914Z 08011KT 25/20 A2987 RMK A01 T02540199  RH  072%=      5-min Rain = 0
KPG1 230915Z 07010KT 25/20 A2987 RMK A01 T02530199  RH  072%=      5-min Rain = 0
KPG1 230916Z 05009KT 25/20 A2987 RMK A01 T02540199  RH  072%=      5-min Rain = 0
KPG1 230917Z 05008KT 25/20 A2987 RMK A01 T02540199  RH  071%=      5-min Rain = 0
KPG1 230918Z 04008KT 25/20 A2987 RMK A01 T02540199  RH  072%=      5-min Rain = 0
KPG1 230919Z 03008KT 26/20 A2987 RMK A01 T02550199  RH  071%=      5-min Rain = 0
KPG1 230920Z 04009KT 26/20 A2987 RMK A01 T02550199  RH  071%=      5-min Rain = 0
KPG1 230921Z 04008KT 26/20 A2987 RMK A01 T02550199  RH  071%=      5-min Rain = 0
KPG1 230922Z 05009KT 26/20 A2987 RMK A01 T02550199  RH  071%=      5-min Rain = 0
KPG1 230923Z 04008KT 25/20 A2987 RMK A01 T02540199  RH  071%=      5-min Rain = 0
KPG1 230924Z 04009KT 25/20 A2987 RMK A01 T02540199  RH  072%=      5-min Rain = 0
KPG1 230925Z 05008KT 25/20 A2987 RMK A01 T02530199  RH  072%=      5-min Rain = 0
KPG1 230926Z 06009KT 25/20 A2987 RMK A01 T02530199  RH  072%=      5-min Rain = 0
KPG1 230927Z 06009KT 25/20 A2987 RMK A01 T02530198  RH  072%=      5-min Rain = 0
KPG1 230928Z 06010KT 25/20 A2987 RMK A01 T02540199  RH  071%=      5-min Rain = 0
KPG1 230929Z 08010KT 25/20 A2987 RMK A01 T02540199  RH  071%=      5-min Rain = 0
KPG1 230930Z 07011KT 25/20 A2987 RMK A01 T02540199  RH  071%=      5-min Rain = 0
KPG1 230931Z 06010KT 26/20 A2987 RMK A01 T02550199  RH  071%=      5-min Rain = 0
KPG1 230932Z 06009KT 26/20 A2987 RMK A01 T02550199  RH  071%=      5-min Rain = 0
KPG1 230933Z 05009KT 25/20 A2987 RMK A01 T02540199  RH  071%=      5-min Rain = 0
KPG1 230934Z 05008KT 25/20 A2987 RMK A01 T02540199  RH  072%=      5-min Rain = 0
KPG1 230935Z 04007KT 25/20 A2987 RMK A01 T02530199  RH  072%=      5-min Rain = 0
KPG1 230936Z 03008KT 25/20 A2987 RMK A01 T02510199  RH  073%=      5-min Rain = 0
KPG1 230937Z 03008KT 25/20 A2987 RMK A01 T02480199  RH  074%=      5-min Rain = 0
KPG1 230938Z 04009KT 25/20 A2987 RMK A01 T02480199  RH  074%=      5-min Rain = 0
KPG1 230939Z 04009KT 25/20 A2987 RMK A01 T02470199  RH  074%=      5-min Rain = 0
KPG1 230940Z 03009KT 25/20 A2987 RMK A01 T02470199  RH  075%=      5-min Rain = 0
KPG1 230941Z 03009KT 25/20 A2987 RMK A01 T02460199  RH  075%=      5-min Rain = 0
KPG1 230942Z 04010KT 25/20 A2987 RMK A01 T02460199  RH  075%=      5-min Rain = 0
KPG1 230943Z 04011KT 25/20 A2987 RMK A01 T02450199  RH  076%=      5-min Rain = 0
KPG1 230944Z 05010KT 25/20 A2987 RMK A01 T02460199  RH  075%=      5-min Rain = 0
KPG1 230945Z 05010KT 25/20 A2987 RMK A01 T02480200  RH  074%=      5-min Rain = 0
KPG1 230946Z 05010KT 25/20 A2987 RMK A01 T02490200  RH  074%=      5-min Rain = 0
KPG1 230947Z 05009KT 25/20 A2987 RMK A01 T02490200  RH  074%=      5-min Rain = 0
KPG1 230948Z 05010KT 25/20 A2987 RMK A01 T02490200  RH  074%=      5-min Rain = 0
KPG1 230949Z 06010KT 25/20 A2987 RMK A01 T02500200  RH  074%=      5-min Rain = 0
KPG1 230950Z 06009KT 25/20 A2987 RMK A01 T02510200  RH  073%=      5-min Rain = 0
KPG1 230951Z 07008KT 25/20 A2987 RMK A01 T02510200  RH  073%=      5-min Rain = 0
KPG1 230952Z 07008KT 25/20 A2987 RMK A01 T02520200  RH  073%=      5-min Rain = 0
KPG1 230953Z 06008KT 25/20 A2987 RMK A01 T02520200  RH  073%=      5-min Rain = 0
KPG1 230954Z 06008KT 25/20 A2987 RMK A01 T02520200  RH  073%=      5-min Rain = 0
KPG1 230955Z 06009KT 25/20 A2987 RMK A01 T02520200  RH  073%=      5-min Rain = 0
KPG1 230956Z 06008KT 25/20 A2987 RMK A01 T02520200  RH  073%=      5-min Rain = 0
KPG1 230957Z 06008KT 25/20 A2987 RMK A01 T02520199  RH  073%=      5-min Rain = 0
KPG1 230958Z 06009KT 25/20 A2987 RMK A01 T02520200  RH  073%=      5-min Rain = 0
KPG1 230959Z 06010KT 25/20 A2987 RMK A01 T02520200  RH  073%=      5-min Rain = 0
KPG1 231000Z 07009KT 25/20 A2987 RMK A01 T02520199  RH  072%=      5-min Rain = 0
KPG1 231001Z 06009KT 25/20 A2987 RMK A01 T02540200  RH  072%=      5-min Rain = 0
KPG1 231002Z 06008KT 25/20 A2987 RMK A01 T02540200  RH  072%=      5-min Rain = 0
KPG1 231003Z 05008KT 25/20 A2987 RMK A01 T02540200  RH  072%=      5-min Rain = 0
KPG1 231004Z 06008KT 25/20 A2987 RMK A01 T02530200  RH  072%=      5-min Rain = 0
KPG1 231005Z 07008KT 25/20 A2988 RMK A01 T02530200  RH  072%=      5-min Rain = 0
KPG1 231006Z 06008KT 25/20 A2988 RMK A01 T02530200  RH  072%=      5-min Rain = 0
KPG1 231007Z 05008KT 25/20 A2988 RMK A01 T02530200  RH  072%=      5-min Rain = 0
KPG1 231008Z 06008KT 25/20 A2988 RMK A01 T02530200  RH  073%=      5-min Rain = 0
KPG1 231009Z 05008KT 25/20 A2988 RMK A01 T02520200  RH  073%=      5-min Rain = 0
KPG1 231010Z 05009KT 25/20 A2988 RMK A01 T02510200  RH  073%=      5-min Rain = 0
KPG1 231011Z 04008KT 25/20 A2988 RMK A01 T02510200  RH  073%=      5-min Rain = 0
KPG1 231012Z 03008KT 25/20 A2988 RMK A01 T02490200  RH  074%=      5-min Rain = 0
KPG1 231013Z 04008KT 25/20 A2988 RMK A01 T02470199  RH  075%=      5-min Rain = 0
KPG1 231014Z 03007KT 25/20 A2989 RMK A01 T02460200  RH  075%=      5-min Rain = 0
KPG1 231015Z 04007KT 25/20 A2989 RMK A01 T02470199  RH  075%=      5-min Rain = 0
KPG1 231016Z 03006KT 25/20 A2989 RMK A01 T02480200  RH  074%=      5-min Rain = 0
KPG1 231017Z 05007KT 25/20 A2989 RMK A01 T02490200  RH  074%=      5-min Rain = 0
KPG1 231018Z 05007KT 25/20 A2989 RMK A01 T02500200  RH  074%=      5-min Rain = 0
KPG1 231019Z 05007KT 25/20 A2989 RMK A01 T02500200  RH  074%=      5-min Rain = 0
KPG1 231020Z 06007KT 25/20 A2989 RMK A01 T02500200  RH  074%=      5-min Rain = 0
KPG1 231021Z 06009KT 25/20 A2989 RMK A01 T02510199  RH  073%=      5-min Rain = 0
KPG1 231022Z 03009KT 25/20 A2988 RMK A01 T02530200  RH  072%=      5-min Rain = 0
KPG1 231023Z 03006KT 25/20 A2988 RMK A01 T02530199  RH  072%=      5-min Rain = 0
KPG1 231024Z 03007KT 25/20 A2989 RMK A01 T02540199  RH  072%=      5-min Rain = 0
KPG1 231025Z 02008KT 25/20 A2989 RMK A01 T02530199  RH  072%=      5-min Rain = 0
KPG1 231026Z 03007KT 25/20 A2989 RMK A01 T02540199  RH  072%=      5-min Rain = 0
KPG1 231027Z 03008KT 25/20 A2989 RMK A01 T02530199  RH  072%=      5-min Rain = 0
KPG1 231028Z 01005KT 25/20 A2989 RMK A01 T02530197  RH  071%=      5-min Rain = 0
KPG1 231029Z 01004KT 25/19 A2988 RMK A01 T02530192  RH  069%=      5-min Rain = 0
KPG1 231030Z 02003KT 26/19 A2988 RMK A01 T02550189  RH  067%=      5-min Rain = 0
KPG1 231031Z 03004KT 26/19 A2989 RMK A01 T02570193  RH  068%=      5-min Rain = 0
KPG1 231032Z 03002KT 26/19 A2989 RMK A01 T02570194  RH  068%=      5-min Rain = 0
KPG1 231033Z 02001KT 26/20 A2989 RMK A01 T02570195  RH  069%=      5-min Rain = 0
KPG1 231034Z 02001KT 26/19 A2989 RMK A01 T02550193  RH  068%=      5-min Rain = 0
KPG1 231035Z 02001KT 26/19 A2989 RMK A01 T02560191  RH  068%=      5-min Rain = 0
KPG1 231036Z 22003KT 26/20 A2989 RMK A01 T02560195  RH  069%=      5-min Rain = 0
KPG1 231037Z 21002KT 25/20 A2989 RMK A01 T02530195  RH  070%=      5-min Rain = 0
KPG1 231038Z 19001KT 25/20 A2989 RMK A01 T02500195  RH  072%=      5-min Rain = 0
KPG1 231039Z 08002KT 25/19 A2989 RMK A01 T02480194  RH  072%=      5-min Rain = 0
KPG1 231040Z 07004KT 25/20 A2989 RMK A01 T02470196  RH  073%=      5-min Rain = 0
KPG1 231041Z 06003KT 25/20 A2989 RMK A01 T02480198  RH  074%=      5-min Rain = 0
KPG1 231042Z 04002KT 25/20 A2989 RMK A01 T02470198  RH  074%=      5-min Rain = 0
KPG1 231043Z 04002KT 25/20 A2989 RMK A01 T02470198  RH  074%=      5-min Rain = 0
KPG1 231044Z 05005KT 25/20 A2989 RMK A01 T02470198  RH  074%=      5-min Rain = 0
KPG1 231045Z 06004KT 25/20 A2989 RMK A01 T02480198  RH  074%=      5-min Rain = 0
KPG1 231046Z 06004KT 25/20 A2989 RMK A01 T02490198  RH  073%=      5-min Rain = 0
KPG1 231047Z 04003KT 25/20 A2989 RMK A01 T02490198  RH  073%=      5-min Rain = 0
KPG1 231048Z 02003KT 25/20 A2989 RMK A01 T02500198  RH  073%=      5-min Rain = 0
KPG1 231049Z 02003KT 25/20 A2989 RMK A01 T02500198  RH  073%=      5-min Rain = 0
KPG1 231050Z 03002KT 25/20 A2989 RMK A01 T02500197  RH  073%=      5-min Rain = 0
KPG1 231051Z 02002KT 25/20 A2989 RMK A01 T02490197  RH  073%=      5-min Rain = 0
KPG1 231052Z 04001KT 25/20 A2989 RMK A01 T02480197  RH  073%=      5-min Rain = 0
KPG1 231053Z 08001KT 25/20 A2989 RMK A01 T02460195  RH  073%=      5-min Rain = 0
KPG1 231054Z 07001KT 25/20 A2989 RMK A01 T02460196  RH  074%=      5-min Rain = 0
KPG1 231055Z 04002KT 25/20 A2989 RMK A01 T02450197  RH  075%=      5-min Rain = 0
KPG1 231056Z 03002KT 25/20 A2989 RMK A01 T02450197  RH  075%=      5-min Rain = 0
KPG1 231057Z 04001KT 25/20 A2989 RMK A01 T02450196  RH  074%=      5-min Rain = 0
KPG1 231058Z 07002KT 25/20 A2989 RMK A01 T02450196  RH  074%=      5-min Rain = 0
KPG1 231059Z 07002KT 25/20 A2989 RMK A01 T02460195  RH  073%=      5-min Rain = 0
KPG1 231100Z 06003KT 25/20 A2989 RMK A01 T02470196  RH  073%=      5-min Rain = 0
KPG1 231101Z 07003KT 25/20 A2989 RMK A01 T02470196  RH  073%=      5-min Rain = 0
KPG1 231102Z 07002KT 25/20 A2989 RMK A01 T02470195  RH  073%=      5-min Rain = 0
KPG1 231103Z 05001KT 25/20 A2989 RMK A01 T02470195  RH  073%=      5-min Rain = 0
KPG1 231104Z 06002KT 25/19 A2989 RMK A01 T02480194  RH  072%=      5-min Rain = 0
KPG1 231105Z 05002KT 25/19 A2989 RMK A01 T02490194  RH  072%=      5-min Rain = 0
KPG1 231106Z 06001KT 25/20 A2989 RMK A01 T02500195  RH  072%=      5-min Rain = 0
KPG1 231107Z 04001KT 25/20 A2989 RMK A01 T02500195  RH  072%=      5-min Rain = 0
KPG1 231108Z 04000KT 25/20 A2989 RMK A01 T02490195  RH  072%=      5-min Rain = 0
KPG1 231109Z 00000KT 25/20 A2989 RMK A01 T02480195  RH  072%=      5-min Rain = 0
KPG1 231110Z 12000KT 25/20 A2989 RMK A01 T02470195  RH  072%=      5-min Rain = 0
KPG1 231111Z 12001KT 25/20 A2989 RMK A01 T02470196  RH  073%=      5-min Rain = 0
KPG1 231112Z 09002KT 25/20 A2989 RMK A01 T02450197  RH  075%=      5-min Rain = 0
KPG1 231113Z 08003KT 24/20 A2989 RMK A01 T02430195  RH  075%=      5-min Rain = 0
KPG1 231114Z 07003KT 24/20 A299 RMK A01 T02430195  RH  075%=      5-min Rain = 0
KPG1 231115Z 06003KT 24/20 A299 RMK A01 T02440195  RH  074%=      5-min Rain = 0
KPG1 231116Z 06003KT 24/20 A299 RMK A01 T02440196  RH  074%=      5-min Rain = 0
KPG1 231117Z 05003KT 24/20 A299 RMK A01 T02430197  RH  075%=      5-min Rain = 0
KPG1 231118Z 05003KT 24/20 A299 RMK A01 T02410196  RH  076%=      5-min Rain = 0
KPG1 231119Z 06004KT 24/20 A299 RMK A01 T02400195  RH  076%=      5-min Rain = 0
KPG1 231120Z 06004KT 24/20 A2989 RMK A01 T02400195  RH  076%=      5-min Rain = 0
KPG1 231121Z 06004KT 24/20 A2989 RMK A01 T02410195  RH  076%=      5-min Rain = 0
KPG1 231122Z 06004KT 24/20 A2989 RMK A01 T02410196  RH  076%=      5-min Rain = 0
KPG1 231123Z 05004KT 24/20 A2989 RMK A01 T02400195  RH  076%=      5-min Rain = 0
KPG1 231124Z 05004KT 24/20 A2989 RMK A01 T02390195  RH  077%=      5-min Rain = 0
KPG1 231125Z 06003KT 24/20 A299 RMK A01 T02370195  RH  077%=      5-min Rain = 0
KPG1 231126Z 03003KT 24/19 A299 RMK A01 T02350194  RH  078%=      5-min Rain = 0
KPG1 231127Z 01003KT 23/19 A299 RMK A01 T02340194  RH  078%=      5-min Rain = 0
KPG1 231128Z 03003KT 24/19 A299 RMK A01 T02350193  RH  077%=      5-min Rain = 0
KPG1 231129Z 04004KT 24/19 A299 RMK A01 T02370192  RH  076%=      5-min Rain = 0
KPG1 231130Z 04003KT 24/19 A299 RMK A01 T02390191  RH  075%=      5-min Rain = 0
KPG1 231131Z 02003KT 24/19 A299 RMK A01 T02420191  RH  073%=      5-min Rain = 0
KPG1 231132Z 02003KT 24/19 A299 RMK A01 T02440191  RH  072%=      5-min Rain = 0
KPG1 231133Z 01003KT 24/19 A299 RMK A01 T02440191  RH  072%=      5-min Rain = 0
KPG1 231134Z 05003KT 25/19 A299 RMK A01 T02450192  RH  072%=      5-min Rain = 0
KPG1 231135Z 05005KT 24/19 A299 RMK A01 T02440192  RH  072%=      5-min Rain = 0
KPG1 231136Z 04004KT 25/19 A299 RMK A01 T02450192  RH  072%=      5-min Rain = 0
KPG1 231137Z 05005KT 25/19 A299 RMK A01 T02460192  RH  072%=      5-min Rain = 0
KPG1 231138Z 05005KT 25/19 A299 RMK A01 T02480189  RH  070%=      5-min Rain = 0
KPG1 231139Z 05004KT 25/19 A299 RMK A01 T02510189  RH  069%=      5-min Rain = 0
KPG1 231140Z 06005KT 25/19 A299 RMK A01 T02520189  RH  068%=      5-min Rain = 0
KPG1 231141Z 04004KT 25/19 A299 RMK A01 T02520191  RH  069%=      5-min Rain = 0
KPG1 231142Z 03003KT 25/19 A299 RMK A01 T02500191  RH  070%=      5-min Rain = 0
KPG1 231143Z 01004KT 25/19 A299 RMK A01 T02480191  RH  071%=      5-min Rain = 0
KPG1 231144Z 36004KT 25/19 A299 RMK A01 T02460191  RH  071%=      5-min Rain = 0
KPG1 231145Z 00005KT 25/19 A299 RMK A01 T02460191  RH  072%=      5-min Rain = 0
KPG1 231146Z 01004KT 25/19 A299 RMK A01 T02460191  RH  072%=      5-min Rain = 0
KPG1 231147Z 01004KT 25/19 A2991 RMK A01 T02450191  RH  072%=      5-min Rain = 0
KPG1 231148Z 01004KT 25/19 A2991 RMK A01 T02450190  RH  071%=      5-min Rain = 0
KPG1 231149Z 04003KT 25/19 A2991 RMK A01 T02450191  RH  072%=      5-min Rain = 0
KPG1 231150Z 04004KT 24/19 A2991 RMK A01 T02430191  RH  073%=      5-min Rain = 0
KPG1 231151Z 05004KT 24/19 A2991 RMK A01 T02420191  RH  073%=      5-min Rain = 0
KPG1 231152Z 06002KT 24/19 A2991 RMK A01 T02420191  RH  073%=      5-min Rain = 0
KPG1 231153Z 08002KT 24/19 A2991 RMK A01 T02430191  RH  073%=      5-min Rain = 0
KPG1 231154Z 12002KT 24/19 A2991 RMK A01 T02430191  RH  073%=      5-min Rain = 0
KPG1 231155Z 19004KT 24/19 A2991 RMK A01 T02420192  RH  074%=      5-min Rain = 0
KPG1 231156Z 18004KT 24/19 A2991 RMK A01 T02400194  RH  075%=      5-min Rain = 0
KPG1 231157Z 17003KT 24/19 A2991 RMK A01 T02380194  RH  076%=      5-min Rain = 0
KPG1 231158Z 16002KT 24/19 A2991 RMK A01 T02360194  RH  077%=      5-min Rain = 0
KPG1 231159Z 15002KT 24/19 A2991 RMK A01 T02350194  RH  078%=      5-min Rain = 0
KPG1 231200Z 18003KT 24/20 A2991 RMK A01 T02350195  RH  078%=      5-min Rain = 0
KPG1 231201Z 18002KT 23/20 A2991 RMK A01 T02340195  RH  079%=      5-min Rain = 0
KPG1 231202Z 20002KT 23/20 A2991 RMK A01 T02330196  RH  080%=      5-min Rain = 0
KPG1 231203Z 23002KT 23/20 A2991 RMK A01 T02310195  RH  080%=      5-min Rain = 0
KPG1 231204Z 24003KT 23/20 A2991 RMK A01 T02300195  RH  081%=      5-min Rain = 0
KPG1 231205Z 24003KT 23/19 A2991 RMK A01 T02290194  RH  081%=      5-min Rain = 0
KPG1 231206Z 22002KT 23/19 A2991 RMK A01 T02290194  RH  081%=      5-min Rain = 0
KPG1 231207Z 22002KT 23/19 A2991 RMK A01 T02290194  RH  081%=      5-min Rain = 0
KPG1 231208Z 24002KT 23/19 A2991 RMK A01 T02290194  RH  081%=      5-min Rain = 0
KPG1 231209Z 24002KT 23/19 A2991 RMK A01 T02300194  RH  080%=      5-min Rain = 0
KPG1 231210Z 24001KT 23/19 A2991 RMK A01 T02310194  RH  080%=      5-min Rain = 0
KPG1 231211Z 24001KT 23/19 A2991 RMK A01 T02310194  RH  079%=      5-min Rain = 0
KPG1 231212Z 25000KT 23/19 A2991 RMK A01 T02320194  RH  079%=      5-min Rain = 0
KPG1 231213Z 27000KT 23/19 A2991 RMK A01 T02320194  RH  079%=      5-min Rain = 0
KPG1 231214Z 00000KT 23/19 A2992 RMK A01 T02320194  RH  079%=      5-min Rain = 0
KPG1 231215Z 25000KT 23/19 A2992 RMK A01 T02320194  RH  079%=      5-min Rain = 0
KPG1 231216Z 25000KT 23/19 A2992 RMK A01 T02320194  RH  079%=      5-min Rain = 0
KPG1 231217Z 00000KT 23/19 A2992 RMK A01 T02330194  RH  079%=      5-min Rain = 0
KPG1 231218Z 00000KT 23/19 A2992 RMK A01 T02320194  RH  079%=      5-min Rain = 0
KPG1 231219Z 00000KT 23/19 A2992 RMK A01 T02330194  RH  079%=      5-min Rain = 0
KPG1 231220Z 00000KT 23/20 A2992 RMK A01 T02330195  RH  079%=      5-min Rain = 0
KPG1 231221Z 01000KT 23/20 A2992 RMK A01 T02320196  RH  080%=      5-min Rain = 0
KPG1 231222Z 03001KT 23/20 A2992 RMK A01 T02310196  RH  081%=      5-min Rain = 0
KPG1 231223Z 06002KT 23/20 A2992 RMK A01 T02290197  RH  082%=      5-min Rain = 0
KPG1 231224Z 06003KT 23/20 A2992 RMK A01 T02280197  RH  083%=      5-min Rain = 0
KPG1 231225Z 05002KT 23/20 A2992 RMK A01 T02270198  RH  083%=      5-min Rain = 0
KPG1 231226Z 06002KT 23/20 A2992 RMK A01 T02260197  RH  084%=      5-min Rain = 0
KPG1 231227Z 04002KT 23/20 A2992 RMK A01 T02270198  RH  084%=      5-min Rain = 0
KPG1 231228Z 03002KT 23/20 A2992 RMK A01 T02260198  RH  084%=      5-min Rain = 0
KPG1 231229Z 03002KT 23/20 A2992 RMK A01 T02270198  RH  084%=      5-min Rain = 0
KPG1 231230Z 04002KT 23/20 A2992 RMK A01 T02260198  RH  084%=      5-min Rain = 0
KPG1 231231Z 04002KT 23/20 A2992 RMK A01 T02260198  RH  084%=      5-min Rain = 0
KPG1 231232Z 04002KT 23/20 A2992 RMK A01 T02260199  RH  085%=      5-min Rain = 0
KPG1 231233Z 05002KT 23/20 A2992 RMK A01 T02250199  RH  085%=      5-min Rain = 0
KPG1 231234Z 05002KT 23/20 A2992 RMK A01 T02250200  RH  085%=      5-min Rain = 0
KPG1 231235Z 05002KT 23/20 A2992 RMK A01 T02250200  RH  085%=      5-min Rain = 0
KPG1 231236Z 05002KT 23/20 A2992 RMK A01 T02250200  RH  085%=      5-min Rain = 0
KPG1 231237Z 06002KT 23/20 A2992 RMK A01 T02250199  RH  085%=      5-min Rain = 0
KPG1 231238Z 08001KT 23/20 A2992 RMK A01 T02260199  RH  085%=      5-min Rain = 0
KPG1 231239Z 12001KT 23/20 A2992 RMK A01 T02260198  RH  084%=      5-min Rain = 0
KPG1 231240Z 16001KT 23/20 A2992 RMK A01 T02270199  RH  084%=      5-min Rain = 0
KPG1 231241Z 18000KT 23/20 A2992 RMK A01 T02270198  RH  084%=      5-min Rain = 0
KPG1 231242Z 17001KT 23/20 A2992 RMK A01 T02280199  RH  084%=      5-min Rain = 0
KPG1 231243Z 17001KT 23/20 A2992 RMK A01 T02270199  RH  084%=      5-min Rain = 0
KPG1 231244Z 18003KT 23/20 A2992 RMK A01 T02280199  RH  084%=      5-min Rain = 0
KPG1 231245Z 18004KT 23/20 A2992 RMK A01 T02280198  RH  083%=      5-min Rain = 0
KPG1 231246Z 18004KT 23/20 A2992 RMK A01 T02280198  RH  083%=      5-min Rain = 0
KPG1 231247Z 17005KT 23/20 A2993 RMK A01 T02300198  RH  082%=      5-min Rain = 0
KPG1 231248Z 17005KT 23/20 A2993 RMK A01 T02320198  RH  081%=      5-min Rain = 0
KPG1 231249Z 17005KT 23/20 A2993 RMK A01 T02330198  RH  080%=      5-min Rain = 0
KPG1 231250Z 14005KT 23/20 A2993 RMK A01 T02340198  RH  080%=      5-min Rain = 0
KPG1 231251Z 14005KT 24/20 A2993 RMK A01 T02350198  RH  080%=      5-min Rain = 0
KPG1 231252Z 15005KT 24/20 A2993 RMK A01 T02360198  RH  079%=      5-min Rain = 0
KPG1 231253Z 14006KT 24/20 A2993 RMK A01 T02370198  RH  078%=      5-min Rain = 0
KPG1 231254Z 14005KT 24/20 A2993 RMK A01 T02390198  RH  078%=      5-min Rain = 0
KPG1 231255Z 14005KT 24/20 A2993 RMK A01 T02390198  RH  078%=      5-min Rain = 0
KPG1 231256Z 14004KT 24/20 A2993 RMK A01 T02400198  RH  077%=      5-min Rain = 0
KPG1 231257Z 13004KT 24/20 A2993 RMK A01 T02400198  RH  078%=      5-min Rain = 0
KPG1 231258Z 13004KT 24/20 A2993 RMK A01 T02400199  RH  078%=      5-min Rain = 0
KPG1 231259Z 12004KT 24/20 A2993 RMK A01 T02390199  RH  078%=      5-min Rain = 0
KPG1 231300Z 12004KT 24/20 A2993 RMK A01 T02390198  RH  078%=      5-min Rain = 0
KPG1 231301Z 13003KT 24/20 A2993 RMK A01 T02390198  RH  078%=      5-min Rain = 0
KPG1 231302Z 12003KT 24/20 A2993 RMK A01 T02390198  RH  078%=      5-min Rain = 0
KPG1 231303Z 14001KT 24/20 A2993 RMK A01 T02390198  RH  078%=      5-min Rain = 0
KPG1 231304Z 13002KT 24/20 A2993 RMK A01 T02390199  RH  078%=      5-min Rain = 0
KPG1 231305Z 11000KT 24/20 A2993 RMK A01 T02390199  RH  078%=      5-min Rain = 0
KPG1 231306Z 11002KT 24/20 A2993 RMK A01 T02380199  RH  078%=      5-min Rain = 0
KPG1 231307Z 12002KT 24/20 A2993 RMK A01 T02380199  RH  078%=      5-min Rain = 0
KPG1 231308Z 13003KT 24/20 A2993 RMK A01 T02380199  RH  079%=      5-min Rain = 0
KPG1 231309Z 16003KT 24/20 A2993 RMK A01 T02370199  RH  079%=      5-min Rain = 0
KPG1 231310Z 16003KT 24/20 A2993 RMK A01 T02370199  RH  079%=      5-min Rain = 0
KPG1 231311Z 21002KT 24/20 A2993 RMK A01 T02370200  RH  080%=      5-min Rain = 0
KPG1 231312Z 21002KT 24/20 A2993 RMK A01 T02370201  RH  080%=      5-min Rain = 0
KPG1 231313Z 23004KT 24/20 A2994 RMK A01 T02360202  RH  081%=      5-min Rain = 0
KPG1 231314Z 23004KT 23/20 A2994 RMK A01 T02340202  RH  082%=      5-min Rain = 0
KPG1 231315Z 24003KT 23/20 A2994 RMK A01 T02340203  RH  083%=      5-min Rain = 0
KPG1 231316Z 23003KT 23/20 A2994 RMK A01 T02330204  RH  083%=      5-min Rain = 0
KPG1 231317Z 23003KT 23/20 A2994 RMK A01 T02330203  RH  083%=      5-min Rain = 0
KPG1 231318Z 22002KT 23/20 A2994 RMK A01 T02330201  RH  082%=      5-min Rain = 0
KPG1 231319Z 22002KT 23/20 A2994 RMK A01 T02330201  RH  082%=      5-min Rain = 0
KPG1 231320Z 21002KT 23/20 A2994 RMK A01 T02340202  RH  082%=      5-min Rain = 0
KPG1 231321Z 21002KT 24/20 A2994 RMK A01 T02350202  RH  082%=      5-min Rain = 0
KPG1 231322Z 20002KT 24/20 A2994 RMK A01 T02350202  RH  082%=      5-min Rain = 0
KPG1 231323Z 20003KT 24/20 A2994 RMK A01 T02350202  RH  082%=      5-min Rain = 0
KPG1 231324Z 21002KT 24/20 A2994 RMK A01 T02350202  RH  082%=      5-min Rain = 0
KPG1 231325Z 21002KT 24/20 A2994 RMK A01 T02350203  RH  082%=      5-min Rain = 0
KPG1 231326Z 21002KT 24/20 A2994 RMK A01 T02360203  RH  082%=      5-min Rain = 0
KPG1 231327Z 21002KT 24/20 A2994 RMK A01 T02360203  RH  082%=      5-min Rain = 0
KPG1 231328Z 22002KT 24/20 A2994 RMK A01 T02360203  RH  082%=      5-min Rain = 0
KPG1 231329Z 23002KT 24/20 A2994 RMK A01 T02360203  RH  081%=      5-min Rain = 0
KPG1 231330Z 24002KT 24/20 A2994 RMK A01 T02370203  RH  082%=      5-min Rain = 0
KPG1 231331Z 24002KT 24/20 A2994 RMK A01 T02370203  RH  081%=      5-min Rain = 0
KPG1 231332Z 23002KT 24/20 A2994 RMK A01 T02370203  RH  081%=      5-min Rain = 0
KPG1 231333Z 23002KT 24/20 A2994 RMK A01 T02380204  RH  081%=      5-min Rain = 0
KPG1 231334Z 22002KT 24/20 A2994 RMK A01 T02400204  RH  081%=      5-min Rain = 0
KPG1 231335Z 22002KT 24/20 A2994 RMK A01 T02420204  RH  079%=      5-min Rain = 0
KPG1 231336Z 22002KT 24/20 A2994 RMK A01 T02420203  RH  079%=      5-min Rain = 0
KPG1 231337Z 24002KT 24/20 A2994 RMK A01 T02420203  RH  079%=      5-min Rain = 0
KPG1 231338Z 21002KT 24/20 A2994 RMK A01 T02430203  RH  078%=      5-min Rain = 0
KPG1 231339Z 21002KT 24/20 A2994 RMK A01 T02440203  RH  078%=      5-min Rain = 0
KPG1 231340Z 20002KT 25/20 A2994 RMK A01 T02450203  RH  077%=      5-min Rain = 0
KPG1 231341Z 19002KT 25/20 A2994 RMK A01 T02460204  RH  077%=      5-min Rain = 0
KPG1 231342Z 18002KT 25/20 A2994 RMK A01 T02470204  RH  077%=      5-min Rain = 0
KPG1 231343Z 17001KT 25/20 A2994 RMK A01 T02480204  RH  076%=      5-min Rain = 0
KPG1 231344Z 17001KT 25/20 A2994 RMK A01 T02480203  RH  076%=      5-min Rain = 0
KPG1 231345Z 18002KT 25/21 A2994 RMK A01 T02490205  RH  076%=      5-min Rain = 0
KPG1 231346Z 20002KT 25/21 A2994 RMK A01 T02510205  RH  076%=      5-min Rain = 0
KPG1 231347Z 17002KT 25/21 A2994 RMK A01 T02510205  RH  076%=      5-min Rain = 0
KPG1 231348Z 15001KT 25/21 A2994 RMK A01 T02510205  RH  076%=      5-min Rain = 0
KPG1 231349Z 22001KT 25/21 A2994 RMK A01 T02520205  RH  075%=      5-min Rain = 0
KPG1 231350Z 20002KT 25/21 A2994 RMK A01 T02520205  RH  075%=      5-min Rain = 0
KPG1 231351Z 20001KT 25/20 A2994 RMK A01 T02530204  RH  074%=      5-min Rain = 0
KPG1 231352Z 17002KT 25/21 A2994 RMK A01 T02520205  RH  075%=      5-min Rain = 0
KPG1 231353Z 18002KT 25/20 A2994 RMK A01 T02520204  RH  075%=      5-min Rain = 0
KPG1 231354Z 15002KT 25/21 A2995 RMK A01 T02510206  RH  076%=      5-min Rain = 0
KPG1 231355Z 16002KT 25/21 A2995 RMK A01 T02530205  RH  075%=      5-min Rain = 0
KPG1 231356Z 19001KT 26/21 A2995 RMK A01 T02550205  RH  074%=      5-min Rain = 0
KPG1 231357Z 19002KT 26/20 A2995 RMK A01 T02550204  RH  073%=      5-min Rain = 0
KPG1 231358Z 20001KT 26/20 A2995 RMK A01 T02550204  RH  074%=      5-min Rain = 0
KPG1 231359Z 13002KT 26/21 A2995 RMK A01 T02550205  RH  074%=      5-min Rain = 0
KPG1 231400Z 13003KT 26/20 A2995 RMK A01 T02550204  RH  073%=      5-min Rain = 0
KPG1 231401Z 13002KT 26/20 A2995 RMK A01 T02560204  RH  073%=      5-min Rain = 0
KPG1 231402Z 10001KT 26/21 A2995 RMK A01 T02570206  RH  073%=      5-min Rain = 0
KPG1 231403Z 11002KT 26/20 A2995 RMK A01 T02580204  RH  072%=      5-min Rain = 0
KPG1 231404Z 13002KT 26/21 A2995 RMK A01 T02590206  RH  072%=      5-min Rain = 0
KPG1 231405Z 14002KT 26/21 A2995 RMK A01 T02600206  RH  072%=      5-min Rain = 0
KPG1 231406Z 15001KT 26/21 A2995 RMK A01 T02610208  RH  072%=      5-min Rain = 0
KPG1 231407Z 16003KT 26/21 A2995 RMK A01 T02620206  RH  071%=      5-min Rain = 0
KPG1 231408Z 16002KT 26/21 A2995 RMK A01 T02620206  RH  071%=      5-min Rain = 0
KPG1 231409Z 16002KT 26/21 A2995 RMK A01 T02610207  RH  072%=      5-min Rain = 0
KPG1 231410Z 19001KT 26/21 A2995 RMK A01 T02610205  RH  071%=      5-min Rain = 0
KPG1 231411Z 19001KT 26/21 A2995 RMK A01 T02600205  RH  072%=      5-min Rain = 0
KPG1 231412Z 17002KT 26/21 A2995 RMK A01 T02600207  RH  072%=      5-min Rain = 0
KPG1 231413Z 18001KT 26/21 A2995 RMK A01 T02600206  RH  072%=      5-min Rain = 0
KPG1 231414Z 17001KT 26/21 A2995 RMK A01 T02600205  RH  071%=      5-min Rain = 0
KPG1 231415Z 18002KT 26/21 A2995 RMK A01 T02600205  RH  072%=      5-min Rain = 0
KPG1 231416Z 19002KT 26/21 A2995 RMK A01 T02610206  RH  071%=      5-min Rain = 0
KPG1 231417Z 20001KT 26/20 A2995 RMK A01 T02620202  RH  070%=      5-min Rain = 0
KPG1 231418Z 22002KT 26/20 A2995 RMK A01 T02620203  RH  070%=      5-min Rain = 0
KPG1 231419Z 20003KT 26/20 A2995 RMK A01 T02610203  RH  070%=      5-min Rain = 0
KPG1 231420Z 18003KT 26/21 A2995 RMK A01 T02600205  RH  071%=      5-min Rain = 0
KPG1 231421Z 19002KT 26/20 A2995 RMK A01 T02610203  RH  070%=      5-min Rain = 0
KPG1 231422Z 18002KT 26/20 A2995 RMK A01 T02620204  RH  070%=      5-min Rain = 0
KPG1 231423Z 18003KT 26/21 A2995 RMK A01 T02620206  RH  071%=      5-min Rain = 0
KPG1 231424Z 19003KT 26/20 A2995 RMK A01 T02630203  RH  070%=      5-min Rain = 0
KPG1 231425Z 20002KT 26/20 A2995 RMK A01 T02630203  RH  070%=      5-min Rain = 0
KPG1 231426Z 19001KT 26/20 A2995 RMK A01 T02630201  RH  069%=      5-min Rain = 0
KPG1 231427Z 20001KT 26/20 A2995 RMK A01 T02630201  RH  069%=      5-min Rain = 0
KPG1 231428Z 22001KT 26/20 A2995 RMK A01 T02630202  RH  069%=      5-min Rain = 0
KPG1 231429Z 22001KT 26/20 A2995 RMK A01 T02630201  RH  069%=      5-min Rain = 0
KPG1 231430Z 22001KT 26/20 A2995 RMK A01 T02630202  RH  069%=      5-min Rain = 0
KPG1 231431Z 24001KT 26/20 A2995 RMK A01 T02640203  RH  069%=      5-min Rain = 0
KPG1 231432Z 22002KT 26/20 A2995 RMK A01 T02640204  RH  069%=      5-min Rain = 0
KPG1 231433Z 19002KT 27/21 A2995 RMK A01 T02650206  RH  070%=      5-min Rain = 0
KPG1 231434Z 16001KT 27/21 A2995 RMK A01 T02670205  RH  069%=      5-min Rain = 0
KPG1 231435Z 14001KT 27/21 A2995 RMK A01 T02680207  RH  069%=      5-min Rain = 0
KPG1 231436Z 21002KT 27/21 A2995 RMK A01 T02710206  RH  068%=      5-min Rain = 0
KPG1 231437Z 25001KT 27/20 A2995 RMK A01 T02710203  RH  066%=      5-min Rain = 0
KPG1 231438Z 28001KT 27/20 A2995 RMK A01 T02700201  RH  066%=      5-min Rain = 0
KPG1 231439Z 27001KT 27/20 A2995 RMK A01 T02700201  RH  066%=      5-min Rain = 0
KPG1 231440Z 26001KT 27/20 A2995 RMK A01 T02700201  RH  066%=      5-min Rain = 0
KPG1 231441Z 22002KT 27/20 A2995 RMK A01 T02690201  RH  066%=      5-min Rain = 0
KPG1 231442Z 19002KT 27/20 A2995 RMK A01 T02690202  RH  067%=      5-min Rain = 0
KPG1 231443Z 19003KT 27/20 A2995 RMK A01 T02710203  RH  067%=      5-min Rain = 0
KPG1 231444Z 19004KT 27/20 A2995 RMK A01 T02730204  RH  066%=      5-min Rain = 0
KPG1 231445Z 21003KT 27/20 A2995 RMK A01 T02740204  RH  066%=      5-min Rain = 0
KPG1 231446Z 17002KT 27/20 A2995 RMK A01 T02740204  RH  066%=      5-min Rain = 0
KPG1 231447Z 17003KT 28/21 A2995 RMK A01 T02750205  RH  066%=      5-min Rain = 0
KPG1 231448Z 17003KT 28/20 A2995 RMK A01 T02760204  RH  065%=      5-min Rain = 0
KPG1 231449Z 18003KT 28/21 A2995 RMK A01 T02770205  RH  065%=      5-min Rain = 0
KPG1 231450Z 20004KT 28/21 A2995 RMK A01 T02790205  RH  064%=      5-min Rain = 0
KPG1 231451Z 21003KT 28/20 A2995 RMK A01 T02800200  RH  062%=      5-min Rain = 0
KPG1 231452Z 21004KT 28/20 A2995 RMK A01 T02780200  RH  063%=      5-min Rain = 0
KPG1 231453Z 22004KT 28/20 A2995 RMK A01 T02760200  RH  063%=      5-min Rain = 0
KPG1 231454Z 21003KT 28/20 A2995 RMK A01 T02750198  RH  063%=      5-min Rain = 0
KPG1 231455Z 20002KT 27/20 A2995 RMK A01 T02740200  RH  064%=      5-min Rain = 0
KPG1 231456Z 19002KT 27/20 A2995 RMK A01 T02740198  RH  063%=      5-min Rain = 0
KPG1 231457Z 22002KT 27/20 A2995 RMK A01 T02740200  RH  064%=      5-min Rain = 0
KPG1 231458Z 22003KT 28/20 A2995 RMK A01 T02760202  RH  064%=      5-min Rain = 0
KPG1 231459Z 22003KT 28/20 A2995 RMK A01 T02770202  RH  064%=      5-min Rain = 0
KPG1 231500Z 17002KT 28/20 A2995 RMK A01 T02780204  RH  064%=      5-min Rain = 0
KPG1 231501Z 18001KT 28/21 A2995 RMK A01 T02800207  RH  064%=      5-min Rain = 0
KPG1 231502Z 23001KT 28/20 A2995 RMK A01 T02820204  RH  063%=      5-min Rain = 0
KPG1 231503Z 22002KT 28/20 A2995 RMK A01 T02830199  RH  060%=      5-min Rain = 0
KPG1 231504Z 19002KT 28/20 A2995 RMK A01 T02820200  RH  061%=      5-min Rain = 0
KPG1 231505Z 16002KT 28/20 A2995 RMK A01 T02820199  RH  060%=      5-min Rain = 0
KPG1 231506Z 14003KT 28/20 A2995 RMK A01 T02830198  RH  060%=      5-min Rain = 0
KPG1 231507Z 13002KT 28/20 A2995 RMK A01 T02820201  RH  061%=      5-min Rain = 0
KPG1 231508Z 13003KT 28/20 A2995 RMK A01 T02840199  RH  060%=      5-min Rain = 0
KPG1 231509Z 14003KT 29/20 A2995 RMK A01 T02850203  RH  061%=      5-min Rain = 0
KPG1 231510Z 16004KT 29/20 A2995 RMK A01 T02860200  RH  060%=      5-min Rain = 0
KPG1 231511Z 16003KT 29/20 A2995 RMK A01 T02870199  RH  059%=      5-min Rain = 0
KPG1 231512Z 15002KT 29/20 A2996 RMK A01 T02850196  RH  059%=      5-min Rain = 0
KPG1 231513Z 17001KT 29/20 A2996 RMK A01 T02850200  RH  060%=      5-min Rain = 0
KPG1 231514Z 16001KT 29/20 A2996 RMK A01 T02850202  RH  061%=      5-min Rain = 0
KPG1 231515Z 16003KT 29/20 A2996 RMK A01 T02860201  RH  060%=      5-min Rain = 0
KPG1 231516Z 17005KT 29/20 A2996 RMK A01 T02870200  RH  060%=      5-min Rain = 0
KPG1 231517Z 16004KT 29/20 A2996 RMK A01 T02880198  RH  058%=      5-min Rain = 0
KPG1 231518Z 17004KT 29/19 A2996 RMK A01 T02860194  RH  057%=      5-min Rain = 0
KPG1 231519Z 16003KT 29/20 A2996 RMK A01 T02850199  RH  060%=      5-min Rain = 0
KPG1 231520Z 12003KT 28/20 A2996 RMK A01 T02840197  RH  059%=      5-min Rain = 0
KPG1 231521Z 12004KT 28/20 A2996 RMK A01 T02840197  RH  059%=      5-min Rain = 0
KPG1 231522Z 16003KT 28/20 A2996 RMK A01 T02840195  RH  058%=      5-min Rain = 0
KPG1 231523Z 14003KT 28/20 A2996 RMK A01 T02840198  RH  060%=      5-min Rain = 0
KPG1 231524Z 12003KT 29/20 A2996 RMK A01 T02850198  RH  059%=      5-min Rain = 0
KPG1 231525Z 13004KT 29/20 A2996 RMK A01 T02860200  RH  060%=      5-min Rain = 0
KPG1 231526Z 12004KT 29/20 A2996 RMK A01 T02880200  RH  059%=      5-min Rain = 0
KPG1 231527Z 13003KT 29/20 A2996 RMK A01 T02880198  RH  059%=      5-min Rain = 0
KPG1 231528Z 18002KT 29/20 A2996 RMK A01 T02880202  RH  060%=      5-min Rain = 0
KPG1 231529Z 21003KT 29/20 A2996 RMK A01 T02890199  RH  058%=      5-min Rain = 0
KPG1 231530Z 23003KT 29/20 A2996 RMK A01 T02880197  RH  058%=      5-min Rain = 0
KPG1 231531Z 27002KT 29/20 A2995 RMK A01 T02870201  RH  060%=      5-min Rain = 0
KPG1 231532Z 26002KT 29/20 A2995 RMK A01 T02860197  RH  059%=      5-min Rain = 0
KPG1 231533Z 23003KT 29/20 A2995 RMK A01 T02850199  RH  060%=      5-min Rain = 0
KPG1 231534Z 19003KT 29/20 A2995 RMK A01 T02850197  RH  059%=      5-min Rain = 0
KPG1 231535Z 14003KT 29/20 A2995 RMK A01 T02850198  RH  059%=      5-min Rain = 0
KPG1 231536Z 19004KT 29/20 A2995 RMK A01 T02880200  RH  059%=      5-min Rain = 0
KPG1 231537Z 19005KT 29/20 A2995 RMK A01 T02910202  RH  059%=      5-min Rain = 0
KPG1 231538Z 18005KT 29/20 A2995 RMK A01 T02930200  RH  057%=      5-min Rain = 0
KPG1 231539Z 20003KT 29/20 A2995 RMK A01 T02930196  RH  056%=      5-min Rain = 0
KPG1 231540Z 20002KT 29/20 A2995 RMK A01 T02910196  RH  057%=      5-min Rain = 0
KPG1 231541Z 21002KT 29/20 A2995 RMK A01 T02900196  RH  057%=      5-min Rain = 0
KPG1 231542Z 12001KT 29/20 A2995 RMK A01 T02900198  RH  058%=      5-min Rain = 0
KPG1 231543Z 12002KT 29/20 A2995 RMK A01 T02910199  RH  058%=      5-min Rain = 0
KPG1 231544Z 14004KT 29/20 A2995 RMK A01 T02920200  RH  058%=      5-min Rain = 0
KPG1 231545Z 14005KT 30/20 A2995 RMK A01 T02950200  RH  057%=      5-min Rain = 0
KPG1 231546Z 14004KT 30/20 A2995 RMK A01 T02950198  RH  056%=      5-min Rain = 0
KPG1 231547Z 14005KT 29/20 A2995 RMK A01 T02940201  RH  057%=      5-min Rain = 0
KPG1 231548Z 14005KT 30/20 A2995 RMK A01 T02960197  RH  055%=      5-min Rain = 0
KPG1 231549Z 13005KT 30/20 A2995 RMK A01 T02960197  RH  055%=      5-min Rain = 0
KPG1 231550Z 15005KT 30/20 A2995 RMK A01 T02950200  RH  057%=      5-min Rain = 0
KPG1 231551Z 19004KT 30/20 A2995 RMK A01 T02970200  RH  056%=      5-min Rain = 0
KPG1 231552Z 23006KT 30/20 A2995 RMK A01 T03000195  RH  054%=      5-min Rain = 0
KPG1 231553Z 23005KT 30/19 A2995 RMK A01 T03000189  RH  051%=      5-min Rain = 0
KPG1 231554Z 25003KT 30/19 A2995 RMK A01 T02980190  RH  052%=      5-min Rain = 0
KPG1 231555Z 27002KT 30/19 A2995 RMK A01 T02970194  RH  054%=      5-min Rain = 0
KPG1 231556Z 29001KT 30/20 A2995 RMK A01 T02980195  RH  054%=      5-min Rain = 0
KPG1 231557Z 31002KT 30/19 A2995 RMK A01 T03000193  RH  053%=      5-min Rain = 0
KPG1 231558Z 34001KT 30/19 A2995 RMK A01 T03010192  RH  052%=      5-min Rain = 0
KPG1 231559Z 34001KT 30/19 A2995 RMK A01 T03010191  RH  052%=      5-min Rain = 0
KPG1 231600Z 14001KT 30/19 A2995 RMK A01 T03010192  RH  052%=      5-min Rain = 0
KPG1 231601Z 20003KT 30/19 A2995 RMK A01 T03030192  RH  051%=      5-min Rain = 0
KPG1 231602Z 20006KT 30/19 A2995 RMK A01 T03040192  RH  051%=      5-min Rain = 0
KPG1 231603Z 19004KT 30/19 A2995 RMK A01 T03040194  RH  052%=      5-min Rain = 0
KPG1 231604Z 19006KT 31/19 A2995 RMK A01 T03050192  RH  051%=      5-min Rain = 0
KPG1 231605Z 18005KT 31/19 A2995 RMK A01 T03050189  RH  050%=      5-min Rain = 0
KPG1 231606Z 15004KT 30/19 A2995 RMK A01 T03040188  RH  050%=      5-min Rain = 0
KPG1 231607Z 12002KT 30/19 A2995 RMK A01 T03030191  RH  051%=      5-min Rain = 0
KPG1 231608Z 11003KT 31/19 A2995 RMK A01 T03060190  RH  050%=      5-min Rain = 0
KPG1 231609Z 12003KT 31/19 A2995 RMK A01 T03070191  RH  050%=      5-min Rain = 0
KPG1 231610Z 18002KT 31/19 A2995 RMK A01 T03080191  RH  050%=      5-min Rain = 0
KPG1 231611Z 29002KT 31/19 A2995 RMK A01 T03080188  RH  049%=      5-min Rain = 0
KPG1 231612Z 30003KT 31/19 A2995 RMK A01 T03080187  RH  048%=      5-min Rain = 0
KPG1 231613Z 29003KT 31/19 A2995 RMK A01 T03060185  RH  048%=      5-min Rain = 0
KPG1 231614Z 27004KT 31/19 A2995 RMK A01 T03050186  RH  049%=      5-min Rain = 0
KPG1 231615Z 28003KT 31/18 A2995 RMK A01 T03050181  RH  048%=      5-min Rain = 0
KPG1 231616Z 31000KT 31/18 A2995 RMK A01 T03050177  RH  046%=      5-min Rain = 0
KPG1 231617Z 26002KT 31/18 A2995 RMK A01 T03070180  RH  047%=      5-min Rain = 0
KPG1 231618Z 25003KT 31/18 A2995 RMK A01 T03080178  RH  046%=      5-min Rain = 0
KPG1 231619Z 23003KT 31/18 A2995 RMK A01 T03070176  RH  045%=      5-min Rain = 0
KPG1 231620Z 28004KT 31/17 A2995 RMK A01 T03070174  RH  045%=      5-min Rain = 0
KPG1 231621Z 29003KT 31/17 A2995 RMK A01 T03060173  RH  045%=      5-min Rain = 0
KPG1 231622Z 25001KT 31/18 A2995 RMK A01 T03060177  RH  046%=      5-min Rain = 0
KPG1 231623Z 22002KT 31/18 A2995 RMK A01 T03080181  RH  047%=      5-min Rain = 0
KPG1 231624Z 22005KT 31/18 A2995 RMK A01 T03110178  RH  045%=      5-min Rain = 0
KPG1 231625Z 21004KT 31/18 A2994 RMK A01 T03100178  RH  045%=      5-min Rain = 0
KPG1 231626Z 22002KT 31/18 A2994 RMK A01 T03100179  RH  046%=      5-min Rain = 0
KPG1 231627Z 22002KT 31/18 A2994 RMK A01 T03100176  RH  045%=      5-min Rain = 0
KPG1 231628Z 21002KT 31/18 A2994 RMK A01 T03100175  RH  044%=      5-min Rain = 0
KPG1 231629Z 25004KT 31/18 A2994 RMK A01 T03110178  RH  045%=      5-min Rain = 0
KPG1 231630Z 26005KT 31/17 A2994 RMK A01 T03130174  RH  043%=      5-min Rain = 0
KPG1 231631Z 26005KT 31/17 A2994 RMK A01 T03140167  RH  041%=      5-min Rain = 0
KPG1 231632Z 26006KT 31/17 A2994 RMK A01 T03140168  RH  042%=      5-min Rain = 0
KPG1 231633Z 27004KT 31/17 A2994 RMK A01 T03130172  RH  043%=      5-min Rain = 0
KPG1 231634Z 29004KT 31/17 A2994 RMK A01 T03130169  RH  042%=      5-min Rain = 0
KPG1 231635Z 26002KT 31/17 A2994 RMK A01 T03130167  RH  042%=      5-min Rain = 0
KPG1 231636Z 32001KT 31/17 A2994 RMK A01 T03130168  RH  042%=      5-min Rain = 0
KPG1 231637Z 33001KT 31/16 A2994 RMK A01 T03140163  RH  040%=      5-min Rain = 0
KPG1 231638Z 18003KT 32/17 A2994 RMK A01 T03150167  RH  041%=      5-min Rain = 0
KPG1 231639Z 24005KT 32/16 A2994 RMK A01 T03170160  RH  039%=      5-min Rain = 0
KPG1 231640Z 25002KT 32/16 A2994 RMK A01 T03170157  RH  038%=      5-min Rain = 0
KPG1 231641Z 27003KT 32/16 A2994 RMK A01 T03170161  RH  039%=      5-min Rain = 0
KPG1 231642Z 28004KT 32/16 A2994 RMK A01 T03180159  RH  038%=      5-min Rain = 0
KPG1 231643Z 28006KT 32/16 A2994 RMK A01 T03180158  RH  038%=      5-min Rain = 0
KPG1 231644Z 29005KT 32/16 A2994 RMK A01 T03170159  RH  039%=      5-min Rain = 0
KPG1 231645Z 27003KT 32/16 A2994 RMK A01 T03160162  RH  040%=      5-min Rain = 0
KPG1 231646Z 32003KT 32/16 A2994 RMK A01 T03190161  RH  039%=      5-min Rain = 0
KPG1 231647Z 01001KT 32/16 A2994 RMK A01 T03220156  RH  037%=      5-min Rain = 0
KPG1 231648Z 00000KT 33/15 A2994 RMK A01 T03250152  RH  035%=      5-min Rain = 0
KPG1 231649Z 24001KT 33/15 A2994 RMK A01 T03270147  RH  034%=      5-min Rain = 0
KPG1 231650Z 22001KT 33/15 A2994 RMK A01 T03270153  RH  035%=      5-min Rain = 0
KPG1 231651Z 14000KT 33/16 A2994 RMK A01 T03290159  RH  036%=      5-min Rain = 0
KPG1 231652Z 18002KT 33/15 A2994 RMK A01 T03310152  RH  034%=      5-min Rain = 0
KPG1 231653Z 21005KT 33/15 A2994 RMK A01 T03310150  RH  034%=      5-min Rain = 0
KPG1 231654Z 28004KT 33/15 A2994 RMK A01 T03290148  RH  034%=      5-min Rain = 0
KPG1 231655Z 25003KT 33/14 A2994 RMK A01 T03280138  RH  032%=      5-min Rain = 0
KPG1 231656Z 25004KT 33/14 A2994 RMK A01 T03270144  RH  033%=      5-min Rain = 0
KPG1 231657Z 25003KT 33/14 A2994 RMK A01 T03250140  RH  033%=      5-min Rain = 0
KPG1 231658Z 21003KT 32/14 A2994 RMK A01 T03220144  RH  034%=      5-min Rain = 0
KPG1 231659Z 21003KT 32/15 A2994 RMK A01 T03240146  RH  034%=      5-min Rain = 0
KPG1 231700Z 19004KT 33/14 A2994 RMK A01 T03270144  RH  033%=      5-min Rain = 0
KPG1 231701Z 18004KT 33/14 A2994 RMK A01 T03280143  RH  033%=      5-min Rain = 0
KPG1 231702Z 18006KT 33/14 A2994 RMK A01 T03300143  RH  032%=      5-min Rain = 0
KPG1 231703Z 21005KT 33/13 A2994 RMK A01 T03310134  RH  030%=      5-min Rain = 0
KPG1 231704Z 22004KT 33/13 A2994 RMK A01 T03300127  RH  029%=      5-min Rain = 0
KPG1 231705Z 17003KT 33/13 A2994 RMK A01 T03290126  RH  029%=      5-min Rain = 0
KPG1 231706Z 18003KT 33/13 A2994 RMK A01 T03280130  RH  030%=      5-min Rain = 0
KPG1 231707Z 15003KT 33/13 A2994 RMK A01 T03290132  RH  030%=      5-min Rain = 0
KPG1 231708Z 13004KT 33/13 A2994 RMK A01 T03290128  RH  030%=      5-min Rain = 0
KPG1 231709Z 14005KT 33/14 A2994 RMK A01 T03300135  RH  031%=      5-min Rain = 0
KPG1 231710Z 14003KT 33/14 A2994 RMK A01 T03340139  RH  031%=      5-min Rain = 0
KPG1 231711Z 12005KT 34/13 A2994 RMK A01 T03350130  RH  029%=      5-min Rain = 0
KPG1 231712Z 16007KT 33/13 A2993 RMK A01 T03340134  RH  030%=      5-min Rain = 0
KPG1 231713Z 22008KT 34/11 A2993 RMK A01 T03370111  RH  025%=      5-min Rain = 0
KPG1 231714Z 22007KT 34/09 A2993 RMK A01 T03380090  RH  022%=      5-min Rain = 0
KPG1 231715Z 26010KT 34/08 A2993 RMK A01 T03410082  RH  020%=      5-min Rain = 0
KPG1 231716Z 26010KT 34/08 A2993 RMK A01 T03410076  RH  020%=      5-min Rain = 0
KPG1 231717Z 27010KT 34/07 A2993 RMK A01 T03380073  RH  019%=      5-min Rain = 0
KPG1 231718Z 28006KT 34/06 A2993 RMK A01 T03360064  RH  018%=      5-min Rain = 0
KPG1 231719Z 27006KT 34/07 A2993 RMK A01 T03360068  RH  019%=      5-min Rain = 0
KPG1 231720Z 30006KT 34/07 A2993 RMK A01 T03360066  RH  019%=      5-min Rain = 0
KPG1 231721Z 36005KT 34/08 A2993 RMK A01 T03380075  RH  020%=      5-min Rain = 0
KPG1 231722Z 32004KT 34/07 A2993 RMK A01 T03380070  RH  019%=      5-min Rain = 0
KPG1 231723Z 26004KT 34/07 A2993 RMK A01 T03400072  RH  019%=      5-min Rain = 0
KPG1 231724Z 25005KT 34/06 A2993 RMK A01 T03420059  RH  017%=      5-min Rain = 0
KPG1 231725Z 21002KT 34/05 A2993 RMK A01 T03390048  RH  016%=      5-min Rain = 0
KPG1 231726Z 20001KT 34/05 A2993 RMK A01 T03370046  RH  016%=      5-min Rain = 0
KPG1 231727Z 28002KT 34/05 A2993 RMK A01 T03360046  RH  016%=      5-min Rain = 0
KPG1 231728Z 21003KT 34/06 A2993 RMK A01 T03370055  RH  017%=      5-min Rain = 0
KPG1 231729Z 22004KT 34/05 A2993 RMK A01 T03380052  RH  017%=      5-min Rain = 0
KPG1 231730Z 21003KT 34/05 A2993 RMK A01 T03400050  RH  016%=      5-min Rain = 0
KPG1 231731Z 24006KT 34/05 A2993 RMK A01 T03400049  RH  016%=      5-min Rain = 0
KPG1 231732Z 22005KT 34/05 A2993 RMK A01 T03390047  RH  016%=      5-min Rain = 0
KPG1 231733Z 25006KT 34/04 A2993 RMK A01 T03390044  RH  016%=      5-min Rain = 0
KPG1 231734Z 27008KT 34/05 A2993 RMK A01 T03400051  RH  017%=      5-min Rain = 0
KPG1 231735Z 28009KT 34/05 A2993 RMK A01 T03420047  RH  016%=      5-min Rain = 0
KPG1 231736Z 29008KT 34/04 A2993 RMK A01 T03420040  RH  015%=      5-min Rain = 0
KPG1 231737Z 29007KT 34/04 A2993 RMK A01 T03420037  RH  015%=      5-min Rain = 0
KPG1 231738Z 29008KT 34/03 A2993 RMK A01 T03410025  RH  014%=      5-min Rain = 0
KPG1 231739Z 28007KT 34/03 A2993 RMK A01 T03410029  RH  014%=      5-min Rain = 0
KPG1 231740Z 27005KT 34/02 A2993 RMK A01 T03410024  RH  014%=      5-min Rain = 0
KPG1 231741Z 29002KT 34/03 A2993 RMK A01 T03410030  RH  014%=      5-min Rain = 0
KPG1 231742Z 32005KT 34/03 A2993 RMK A01 T03400033  RH  015%=      5-min Rain = 0
KPG1 231743Z 34004KT 34/02 A2993 RMK A01 T03390022  RH  013%=      5-min Rain = 0
KPG1 231744Z 02001KT 34/03 A2993 RMK A01 T03390030  RH  014%=      5-min Rain = 0
KPG1 231745Z 19000KT 34/03 A2993 RMK A01 T03400025  RH  014%=      5-min Rain = 0
KPG1 231746Z 02001KT 34/02 A2993 RMK A01 T03410021  RH  013%=      5-min Rain = 0
KPG1 231747Z 03004KT 34/04 A2993 RMK A01 T03420037  RH  015%=      5-min Rain = 0
KPG1 231748Z 03003KT 34/02 A2993 RMK A01 T03440022  RH  013%=      5-min Rain = 0
KPG1 231749Z 03005KT 34/02 A2993 RMK A01 T03440022  RH  013%=      5-min Rain = 0
KPG1 231750Z 02004KT 34/02 A2993 RMK A01 T03420020  RH  013%=      5-min Rain = 0
KPG1 231751Z 02003KT 34/02 A2993 RMK A01 T03420018  RH  013%=      5-min Rain = 0
KPG1 231752Z 02002KT 34/02 A2993 RMK A01 T03430018  RH  013%=      5-min Rain = 0
KPG1 231753Z 28001KT 34/01 A2993 RMK A01 T03440012  RH  012%=      5-min Rain = 0
KPG1 231754Z 28003KT 34/01 A2993 RMK A01 T03440011  RH  012%=      5-min Rain = 0
KPG1 231755Z 26005KT 35/02 A2993 RMK A01 T03450021  RH  013%=      5-min Rain = 0
KPG1 231756Z 25004KT 35/00 A2993 RMK A01 T03480002  RH  011%=      5-min Rain = 0
KPG1 231757Z 22005KT 35/01 A2993 RMK A01 T03480012  RH  012%=      5-min Rain = 0
KPG1 231758Z 24006KT 35/02 A2993 RMK A01 T03510017  RH  012%=      5-min Rain = 0
KPG1 231759Z 25009KT 35/02 A2993 RMK A01 T03530019  RH  012%=      5-min Rain = 0
KPG1 231800Z 24011KT 35/01 A2993 RMK A01 T03530013  RH  012%=      5-min Rain = 0
KPG1 231801Z 25011KT 35/02 A2993 RMK A01 T03530016  RH  012%=      5-min Rain = 0
KPG1 231802Z 24009KT 35/01 A2993 RMK A01 T03520013  RH  012%=      5-min Rain = 0
KPG1 231803Z 23007KT 35/02 A2993 RMK A01 T03520018  RH  012%=      5-min Rain = 0
KPG1 231804Z 26010KT 35/02 A2993 RMK A01 T03540019  RH  012%=      5-min Rain = 0
KPG1 231805Z 27009KT 35/01 A2993 RMK A01 T03540014  RH  012%=      5-min Rain = 0
KPG1 231806Z 26008KT 35/00 A2993 RMK A01 T03510004  RH  011%=      5-min Rain = 0
KPG1 231807Z 25006KT 35/01 A2993 RMK A01 T03480006  RH  011%=      5-min Rain = 0
KPG1 231808Z 27006KT 35/01 A2993 RMK A01 T03480013  RH  012%=      5-min Rain = 0
KPG1 231809Z 29005KT 35/01 A2993 RMK A01 T03490007  RH  011%=      5-min Rain = 0
KPG1 231810Z 25005KT 35/01 A2993 RMK A01 T03500010  RH  012%=      5-min Rain = 0
KPG1 231811Z 24004KT 35/00 A2993 RMK A01 T03500003  RH  011%=      5-min Rain = 0
KPG1 231812Z 26010KT 35/00 A2992 RMK A01 T03500004  RH  011%=      5-min Rain = 0
KPG1 231813Z 27008KT 35/02 A2992 RMK A01 T03510022  RH  013%=      5-min Rain = 0
KPG1 231814Z 28009KT 35/02 A2992 RMK A01 T03540015  RH  012%=      5-min Rain = 0
KPG1 231815Z 29009KT 35/01 A2992 RMK A01 T03530007  RH  011%=      5-min Rain = 0
KPG1 231816Z 24007G14KT 35/01 A2992 RMK A01 T03510012  RH  012%=      5-min Rain = 0
KPG1 231817Z 24010KT 35/01 A2992 RMK A01 T03520012  RH  012%=      5-min Rain = 0
KPG1 231818Z 27008KT 35/02 A2992 RMK A01 T03530019  RH  012%=      5-min Rain = 0
KPG1 231819Z 26006KT 35/02 A2992 RMK A01 T03540018  RH  012%=      5-min Rain = 0
KPG1 231820Z 25007KT 36/02 A2992 RMK A01 T03560021  RH  012%=      5-min Rain = 0
KPG1 231821Z 25010G15KT 36/02 A2992 RMK A01 T03560018  RH  012%=      5-min Rain = 0
KPG1 231822Z 26011KT 36/02 A2992 RMK A01 T03570016  RH  012%=      5-min Rain = 0
KPG1 231823Z 25012KT 36/01 A2992 RMK A01 T03550010  RH  011%=      5-min Rain = 0
KPG1 231824Z 26012KT 35/01 A2992 RMK A01 T03530011  RH  012%=      5-min Rain = 0
KPG1 231825Z 26011KT 35/01 A2992 RMK A01 T03520012  RH  012%=      5-min Rain = 0
KPG1 231826Z 27011KT 35/01 A2992 RMK A01 T03520009  RH  011%=      5-min Rain = 0
KPG1 231827Z 28008KT 35/01 A2992 RMK A01 T03510011  RH  012%=      5-min Rain = 0
KPG1 231828Z 26010KT 35/01 A2992 RMK A01 T03510010  RH  012%=      5-min Rain = 0
KPG1 231829Z 26006KT 35/00 A2992 RMK A01 T03510004  RH  011%=      5-min Rain = 0
KPG1 231830Z 25003KT 35/M00 A2992 RMK A01 T03501001  RH  011%=      5-min Rain = 0
KPG1 231831Z 28003KT 35/00 A2992 RMK A01 T03490004  RH  011%=      5-min Rain = 0
KPG1 231832Z 27004KT 35/00 A2991 RMK A01 T03490002  RH  011%=      5-min Rain = 0
KPG1 231833Z 24004KT 35/02 A2991 RMK A01 T03510018  RH  012%=      5-min Rain = 0
KPG1 231834Z 25011KT 36/02 A2991 RMK A01 T03550015  RH  012%=      5-min Rain = 0
KPG1 231835Z 24012KT 36/00 A2991 RMK A01 T03570003  RH  011%=      5-min Rain = 0
KPG1 231836Z 24010KT 36/01 A2991 RMK A01 T03560006  RH  011%=      5-min Rain = 0
KPG1 231837Z 24012KT 36/M00 A2991 RMK A01 T03551002  RH  010%=      5-min Rain = 0
KPG1 231838Z 24012G17KT 35/M00 A2991 RMK A01 T03531002  RH  011%=      5-min Rain = 0
KPG1 231839Z 25013KT 35/00 A2991 RMK A01 T03530004  RH  011%=      5-min Rain = 0
KPG1 231840Z 25012KT 36/00 A2991 RMK A01 T03550004  RH  011%=      5-min Rain = 0
KPG1 231841Z 25011KT 36/01 A2991 RMK A01 T03550006  RH  011%=      5-min Rain = 0
KPG1 231842Z 25010KT 36/01 A2991 RMK A01 T03550011  RH  011%=      5-min Rain = 0
KPG1 231843Z 25008KT 35/01 A2991 RMK A01 T03540006  RH  011%=      5-min Rain = 0
KPG1 231844Z 25007KT 35/01 A2991 RMK A01 T03540008  RH  011%=      5-min Rain = 0
KPG1 231845Z 24005KT 35/00 A2991 RMK A01 T03540001  RH  011%=      5-min Rain = 0
KPG1 231846Z 24005KT 35/00 A2991 RMK A01 T03530000  RH  011%=      5-min Rain = 0
KPG1 231847Z 28010KT 35/00 A2991 RMK A01 T03530002  RH  011%=      5-min Rain = 0
KPG1 231848Z 26012KT 35/01 A2991 RMK A01 T03530005  RH  011%=      5-min Rain = 0
KPG1 231849Z 25010KT 35/00 A2991 RMK A01 T03530003  RH  011%=      5-min Rain = 0
KPG1 231850Z 28010KT 35/M00 A2991 RMK A01 T03531002  RH  011%=      5-min Rain = 0
KPG1 231851Z 28008KT 35/00 A2991 RMK A01 T03520001  RH  011%=      5-min Rain = 0
KPG1 231852Z 25007KT 35/01 A2991 RMK A01 T03520005  RH  011%=      5-min Rain = 0
KPG1 231853Z 24007KT 35/00 A2991 RMK A01 T03540003  RH  011%=      5-min Rain = 0
KPG1 231854Z 24005KT 35/00 A2991 RMK A01 T03540003  RH  011%=      5-min Rain = 0
KPG1 231855Z 23007KT 35/00 A2991 RMK A01 T03540004  RH  011%=      5-min Rain = 0
KPG1 231856Z 25008KT 36/01 A2991 RMK A01 T03560010  RH  011%=      5-min Rain = 0
KPG1 231857Z 26009KT 36/01 A2991 RMK A01 T03570006  RH  011%=      5-min Rain = 0
KPG1 231858Z 25008KT 36/00 A2991 RMK A01 T03560002  RH  011%=      5-min Rain = 0
KPG1 231859Z 25009KT 35/00 A2991 RMK A01 T03540002  RH  011%=      5-min Rain = 0
KPG1 231900Z 26009KT 36/00 A299 RMK A01 T03550001  RH  011%=      5-min Rain = 0
KPG1 231901Z 24009G15KT 36/01 A299 RMK A01 T03550013  RH  012%=      5-min Rain = 0
KPG1 231902Z 26008KT 36/01 A299 RMK A01 T03570007  RH  011%=      5-min Rain = 0
KPG1 231903Z 27008KT 36/01 A299 RMK A01 T03560006  RH  011%=      5-min Rain = 0
KPG1 231904Z 29007G15KT 36/M00 A299 RMK A01 T03551003  RH  010%=      5-min Rain = 0
KPG1 231905Z 26011KT 35/00 A299 RMK A01 T03530003  RH  011%=      5-min Rain = 0
KPG1 231906Z 26008KT 35/01 A299 RMK A01 T03540010  RH  011%=      5-min Rain = 0
KPG1 231907Z 25006KT 36/00 A299 RMK A01 T03550001  RH  011%=      5-min Rain = 0
KPG1 231908Z 25008KT 36/01 A299 RMK A01 T03550005  RH  011%=      5-min Rain = 0
KPG1 231909Z 27009KT 36/01 A299 RMK A01 T03550005  RH  011%=      5-min Rain = 0
KPG1 231910Z 25008KT 36/01 A299 RMK A01 T03560006  RH  011%=      5-min Rain = 0
KPG1 231911Z 24004KT 36/01 A299 RMK A01 T03560009  RH  011%=      5-min Rain = 0
KPG1 231912Z 26006KT 36/01 A299 RMK A01 T03570008  RH  011%=      5-min Rain = 0
KPG1 231913Z 25005KT 36/01 A299 RMK A01 T03570008  RH  011%=      5-min Rain = 0
KPG1 231914Z 25007KT 36/01 A299 RMK A01 T03580009  RH  011%=      5-min Rain = 0
KPG1 231915Z 23008KT 36/01 A299 RMK A01 T03580008  RH  011%=      5-min Rain = 0
KPG1 231916Z 24009KT 36/01 A299 RMK A01 T03600011  RH  011%=      5-min Rain = 0
KPG1 231917Z 23009KT 36/00 A299 RMK A01 T03610002  RH  010%=      5-min Rain = 0
KPG1 231918Z 23012KT 36/00 A299 RMK A01 T03600002  RH  010%=      5-min Rain = 0
KPG1 231919Z 24011KT 36/M00 A299 RMK A01 T03591002  RH  010%=      5-min Rain = 0
KPG1 231920Z 25008KT 36/M00 A299 RMK A01 T03571003  RH  010%=      5-min Rain = 0
KPG1 231921Z 24006KT 36/M01 A299 RMK A01 T03561010  RH  010%=      5-min Rain = 0
KPG1 231922Z 24007KT 36/M00 A299 RMK A01 T03551002  RH  010%=      5-min Rain = 0
KPG1 231923Z 25009KT 36/01 A299 RMK A01 T03570009  RH  011%=      5-min Rain = 0
KPG1 231924Z 25008KT 36/01 A299 RMK A01 T03590006  RH  011%=      5-min Rain = 0
KPG1 231925Z 25007KT 36/01 A299 RMK A01 T03590007  RH  011%=      5-min Rain = 0
KPG1 231926Z 26004KT 36/M00 A299 RMK A01 T03591002  RH  010%=      5-min Rain = 0
KPG1 231927Z 25007KT 36/M00 A299 RMK A01 T03571003  RH  010%=      5-min Rain = 0
KPG1 231928Z 24007KT 36/M00 A299 RMK A01 T03561003  RH  010%=      5-min Rain = 0
KPG1 231929Z 22007KT 36/00 A299 RMK A01 T03560002  RH  011%=      5-min Rain = 0
KPG1 231930Z 24007G13KT 36/00 A299 RMK A01 T03580001  RH  010%=      5-min Rain = 0
KPG1 231931Z 24009KT 36/M00 A299 RMK A01 T03601003  RH  010%=      5-min Rain = 0
KPG1 231932Z 24008KT 36/M00 A299 RMK A01 T03591004  RH  010%=      5-min Rain = 0
KPG1 231933Z 23007KT 36/M00 A299 RMK A01 T03581003  RH  010%=      5-min Rain = 0
KPG1 231934Z 24007KT 36/01 A299 RMK A01 T03590008  RH  011%=      5-min Rain = 0
KPG1 231935Z 26007KT 36/00 A299 RMK A01 T03600001  RH  010%=      5-min Rain = 0
KPG1 231936Z 30008KT 36/M00 A299 RMK A01 T03601001  RH  010%=      5-min Rain = 0
KPG1 231937Z 31005KT 36/M01 A299 RMK A01 T03581007  RH  010%=      5-min Rain = 0
KPG1 231938Z 29003KT 36/M00 A299 RMK A01 T03571001  RH  010%=      5-min Rain = 0
KPG1 231939Z 27004KT 36/01 A299 RMK A01 T03580006  RH  011%=      5-min Rain = 0
KPG1 231940Z 28006KT 36/01 A299 RMK A01 T03600005  RH  011%=      5-min Rain = 0
KPG1 231941Z 27010KT 36/00 A299 RMK A01 T03600002  RH  010%=      5-min Rain = 0
KPG1 231942Z 25009KT 36/M00 A299 RMK A01 T03591003  RH  010%=      5-min Rain = 0
KPG1 231943Z 24012KT 36/00 A299 RMK A01 T035900-0  RH  010%=      5-min Rain = 0
KPG1 231944Z 24011KT 36/M00 A299 RMK A01 T03611001  RH  010%=      5-min Rain = 0
KPG1 231945Z 24013KT 36/M00 A2989 RMK A01 T03621002  RH  010%=      5-min Rain = 0
KPG1 231946Z 21009KT 36/M01 A2989 RMK A01 T03621012  RH  009%=      5-min Rain = 0
KPG1 231947Z 21008KT 36/M01 A2989 RMK A01 T03601012  RH  009%=      5-min Rain = 0
KPG1 231948Z 18007KT 36/M00 A2989 RMK A01 T03581004  RH  010%=      5-min Rain = 0
KPG1 231949Z 22006KT 36/M01 A2989 RMK A01 T03581013  RH  009%=      5-min Rain = 0
KPG1 231950Z 25010KT 36/M00 A2989 RMK A01 T03591003  RH  010%=      5-min Rain = 0
KPG1 231951Z 23008KT 36/M00 A2989 RMK A01 T03601004  RH  010%=      5-min Rain = 0
KPG1 231952Z 24012KT 36/M00 A2989 RMK A01 T03611002  RH  010%=      5-min Rain = 0
KPG1 231953Z 24009KT 36/M01 A2989 RMK A01 T03621008  RH  010%=      5-min Rain = 0
KPG1 231954Z 23008KT 36/M01 A2989 RMK A01 T03611005  RH  010%=      5-min Rain = 0
KPG1 231955Z 22007KT 36/M00 A2989 RMK A01 T03611001  RH  010%=      5-min Rain = 0
KPG1 231956Z 25007KT 36/01 A2989 RMK A01 T03640007  RH  011%=      5-min Rain = 0
KPG1 231957Z 25009KT 37/00 A2989 RMK A01 T03670001  RH  010%=      5-min Rain = 0
KPG1 231958Z 26007KT 37/00 A2989 RMK A01 T03650002  RH  010%=      5-min Rain = 0
KPG1 231959Z 24008KT 36/M00 A2989 RMK A01 T03641002  RH  010%=      5-min Rain = 0
KPG1 232000Z 23006KT 36/00 A2989 RMK A01 T03630001  RH  010%=      5-min Rain = 0
KPG1 232001Z 24006KT 36/M01 A2989 RMK A01 T03631008  RH  010%=      5-min Rain = 0
KPG1 232002Z 24006KT 36/01 A2989 RMK A01 T03640007  RH  011%=      5-min Rain = 0
KPG1 232003Z 22007KT 37/01 A2989 RMK A01 T03650010  RH  011%=      5-min Rain = 0
KPG1 232004Z 21006KT 37/M01 A2989 RMK A01 T03671009  RH  009%=      5-min Rain = 0
KPG1 232005Z 20005KT 37/M01 A2989 RMK A01 T03651007  RH  010%=      5-min Rain = 0
KPG1 232006Z 20004KT 36/M01 A2989 RMK A01 T03641010  RH  009%=      5-min Rain = 0
KPG1 232007Z 21004KT 36/M01 A2989 RMK A01 T03621006  RH  010%=      5-min Rain = 0
KPG1 232008Z 19005KT 36/M00 A2989 RMK A01 T03621003  RH  010%=      5-min Rain = 0
KPG1 232009Z 21005KT 36/M01 A2989 RMK A01 T03641009  RH  009%=      5-min Rain = 0
KPG1 232010Z 18005KT 36/00 A2989 RMK A01 T03640001  RH  010%=      5-min Rain = 0
KPG1 232011Z 17005KT 37/00 A2988 RMK A01 T03650001  RH  010%=      5-min Rain = 0
KPG1 232012Z 17005KT 37/M00 A2988 RMK A01 T03651003  RH  010%=      5-min Rain = 0
KPG1 232013Z 18005KT 36/M01 A2988 RMK A01 T03641008  RH  010%=      5-min Rain = 0
KPG1 232014Z 20007KT 36/M00 A2988 RMK A01 T03631003  RH  010%=      5-min Rain = 0
KPG1 232015Z 20005KT 36/M01 A2988 RMK A01 T03641009  RH  009%=      5-min Rain = 0
KPG1 232016Z 19004KT 37/M01 A2988 RMK A01 T03651006  RH  010%=      5-min Rain = 0
KPG1 232017Z 21006KT 37/M00 A2988 RMK A01 T03651004  RH  010%=      5-min Rain = 0
KPG1 232018Z 21007KT 37/01 A2988 RMK A01 T03670006  RH  010%=      5-min Rain = 0
KPG1 232019Z 20008KT 37/M01 A2988 RMK A01 T03681010  RH  009%=      5-min Rain = 0
KPG1 232020Z 19006KT 37/M01 A2988 RMK A01 T03651011  RH  009%=      5-min Rain = 0
KPG1 232021Z 18003KT 36/M01 A2988 RMK A01 T03621012  RH  009%=      5-min Rain = 0
KPG1 232022Z 18002KT 36/M01 A2988 RMK A01 T03611011  RH  009%=      5-min Rain = 0
KPG1 232023Z 29007KT 36/00 A2988 RMK A01 T03620004  RH  011%=      5-min Rain = 0
KPG1 232024Z 28008KT 36/M01 A2988 RMK A01 T03621009  RH  010%=      5-min Rain = 0
KPG1 232025Z 31005KT 36/M00 A2988 RMK A01 T03601003  RH  010%=      5-min Rain = 0
KPG1 232026Z 32003KT 36/M02 A2988 RMK A01 T03611015  RH  009%=      5-min Rain = 0
KPG1 232027Z 32003KT 36/M02 A2988 RMK A01 T03591021  RH  009%=      5-min Rain = 0
KPG1 232028Z 28004KT 36/M00 A2988 RMK A01 T03591003  RH  010%=      5-min Rain = 0
KPG1 232029Z 30008KT 36/M01 A2988 RMK A01 T03621008  RH  010%=      5-min Rain = 0
KPG1 232030Z 29004KT 36/M02 A2988 RMK A01 T03601015  RH  009%=      5-min Rain = 0
KPG1 232031Z 03001KT 36/M01 A2988 RMK A01 T03591009  RH  010%=      5-min Rain = 0
KPG1 232032Z 24005KT 36/00 A2987 RMK A01 T03610002  RH  010%=      5-min Rain = 0
KPG1 232033Z 25007KT 36/M00 A2987 RMK A01 T03641001  RH  010%=      5-min Rain = 0
KPG1 232034Z 22003KT 37/M00 A2987 RMK A01 T03651004  RH  010%=      5-min Rain = 0
KPG1 232035Z 20003KT 37/00 A2987 RMK A01 T03650004  RH  010%=      5-min Rain = 0
KPG1 232036Z 18002KT 37/M00 A2987 RMK A01 T03651002  RH  010%=      5-min Rain = 0
KPG1 232037Z 20003KT 37/M00 A2987 RMK A01 T03651004  RH  010%=      5-min Rain = 0
KPG1 232038Z 24005KT 37/M00 A2987 RMK A01 T03661001  RH  010%=      5-min Rain = 0
KPG1 232039Z 26003KT 37/M01 A2987 RMK A01 T03671008  RH  009%=      5-min Rain = 0
KPG1 232040Z 31003KT 37/01 A2987 RMK A01 T03660010  RH  011%=      5-min Rain = 0
KPG1 232041Z 27006KT 37/01 A2987 RMK A01 T03680005  RH  010%=      5-min Rain = 0
KPG1 232042Z 29007KT 37/01 A2987 RMK A01 T03690010  RH  011%=      5-min Rain = 0
KPG1 232043Z 30010KT 37/M00 A2987 RMK A01 T03681003  RH  010%=      5-min Rain = 0
KPG1 232044Z 29008KT 37/M01 A2987 RMK A01 T03651009  RH  009%=      5-min Rain = 0
KPG1 232045Z 25006KT 36/00 A2987 RMK A01 T03620002  RH  010%=      5-min Rain = 0
KPG1 232046Z 22005KT 36/M01 A2987 RMK A01 T03631008  RH  010%=      5-min Rain = 0
KPG1 232047Z 17004KT 36/M01 A2987 RMK A01 T03631014  RH  009%=      5-min Rain = 0
KPG1 232048Z 18004KT 36/00 A2987 RMK A01 T03630002  RH  010%=      5-min Rain = 0
KPG1 232049Z 20006KT 37/00 A2987 RMK A01 T03650004  RH  010%=      5-min Rain = 0
KPG1 232050Z 19004KT 37/M01 A2987 RMK A01 T03661013  RH  009%=      5-min Rain = 0
KPG1 232051Z 16003KT 36/M01 A2987 RMK A01 T03631010  RH  009%=      5-min Rain = 0
KPG1 232052Z 15002KT 36/M00 A2987 RMK A01 T03631001  RH  010%=      5-min Rain = 0
KPG1 232053Z 16002KT 37/01 A2987 RMK A01 T03650005  RH  010%=      5-min Rain = 0
KPG1 232054Z 17001KT 37/M01 A2987 RMK A01 T03671013  RH  009%=      5-min Rain = 0
KPG1 232055Z 35001KT 37/M02 A2987 RMK A01 T03671015  RH  009%=      5-min Rain = 0
KPG1 232056Z 33001KT 37/M00 A2987 RMK A01 T03671004  RH  010%=      5-min Rain = 0
KPG1 232057Z 19002KT 37/M01 A2987 RMK A01 T03671006  RH  010%=      5-min Rain = 0
KPG1 232058Z 21004KT 37/01 A2987 RMK A01 T03680005  RH  010%=      5-min Rain = 0
KPG1 232059Z 21004KT 37/M01 A2987 RMK A01 T03691007  RH  009%=      5-min Rain = 0
KPG1 232100Z 22003KT 37/M00 A2986 RMK A01 T03681002  RH  010%=      5-min Rain = 0
KPG1 232101Z 19004KT 37/01 A2986 RMK A01 T03680009  RH  010%=      5-min Rain = 0
KPG1 232102Z 16005KT 37/01 A2986 RMK A01 T03710010  RH  010%=      5-min Rain = 0
KPG1 232103Z 14005KT 37/02 A2986 RMK A01 T03710020  RH  011%=      5-min Rain = 0
KPG1 232104Z 08004KT 37/02 A2986 RMK A01 T03730015  RH  011%=      5-min Rain = 0
KPG1 232105Z 29005KT 37/00 A2986 RMK A01 T03740003  RH  010%=      5-min Rain = 0
KPG1 232106Z 27007KT 37/01 A2986 RMK A01 T03720005  RH  010%=      5-min Rain = 0
KPG1 232107Z 27010KT 37/00 A2986 RMK A01 T03700003  RH  010%=      5-min Rain = 0
KPG1 232108Z 25009KT 37/M00 A2986 RMK A01 T03681001  RH  010%=      5-min Rain = 0
KPG1 232109Z 25008KT 37/M00 A2986 RMK A01 T03671002  RH  010%=      5-min Rain = 0
KPG1 232110Z 27007KT 37/01 A2986 RMK A01 T03670009  RH  011%=      5-min Rain = 0
KPG1 232111Z 28003G8KT 37/M01 A2986 RMK A01 T03671012  RH  009%=      5-min Rain = 0
KPG1 232112Z 32005KT 37/M00 A2986 RMK A01 T03661004  RH  010%=      5-min Rain = 0
KPG1 232113Z 34005KT 37/M00 A2986 RMK A01 T03671001  RH  010%=      5-min Rain = 0
KPG1 232114Z 33004KT 37/M00 A2986 RMK A01 T03661001  RH  010%=      5-min Rain = 0
KPG1 232115Z 34004KT 37/01 A2986 RMK A01 T03670010  RH  011%=      5-min Rain = 0
KPG1 232116Z 33004KT 37/M01 A2986 RMK A01 T03681008  RH  009%=      5-min Rain = 0
KPG1 232117Z 31005KT 37/M01 A2986 RMK A01 T03661005  RH  010%=      5-min Rain = 0
KPG1 232118Z 29004KT 37/00 A2986 RMK A01 T03660004  RH  010%=      5-min Rain = 0
KPG1 232119Z 28006KT 37/00 A2986 RMK A01 T03670001  RH  010%=      5-min Rain = 0
KPG1 232120Z 30007KT 37/01 A2986 RMK A01 T03680009  RH  010%=      5-min Rain = 0
KPG1 232121Z 32005KT 37/01 A2986 RMK A01 T03710008  RH  010%=      5-min Rain = 0
KPG1 232122Z 25006KT 37/01 A2986 RMK A01 T03730011  RH  010%=      5-min Rain = 0
KPG1 232123Z 27007KT 37/01 A2986 RMK A01 T03730011  RH  010%=      5-min Rain = 0
KPG1 232124Z 27005KT 37/01 A2985 RMK A01 T03720006  RH  010%=      5-min Rain = 0
KPG1 232125Z 28009KT 37/01 A2985 RMK A01 T03720014  RH  011%=      5-min Rain = 0
KPG1 232126Z 29008KT 37/M00 A2985 RMK A01 T03711002  RH  010%=      5-min Rain = 0
KPG1 232127Z 30005KT 37/M01 A2985 RMK A01 T03691008  RH  009%=      5-min Rain = 0
KPG1 232128Z 27002KT 37/M00 A2985 RMK A01 T03671003  RH  010%=      5-min Rain = 0
KPG1 232129Z 20001KT 37/01 A2985 RMK A01 T03680009  RH  010%=      5-min Rain = 0
KPG1 232130Z 18002KT 37/00 A2985 RMK A01 T03710001  RH  010%=      5-min Rain = 0
KPG1 232131Z 19002KT 37/00 A2985 RMK A01 T037300-0  RH  010%=      5-min Rain = 0
KPG1 232132Z 18003KT 37/00 A2985 RMK A01 T03740001  RH  010%=      5-min Rain = 0
KPG1 232133Z 16005KT 37/00 A2985 RMK A01 T03740000  RH  010%=      5-min Rain = 0
KPG1 232134Z 16003KT 37/M01 A2985 RMK A01 T03711007  RH  009%=      5-min Rain = 0
KPG1 232135Z 19002KT 37/M01 A2985 RMK A01 T03671013  RH  009%=      5-min Rain = 0
KPG1 232136Z 19003KT 37/M01 A2985 RMK A01 T03671009  RH  009%=      5-min Rain = 0
KPG1 232137Z 17003KT 37/M01 A2985 RMK A01 T03671008  RH  009%=      5-min Rain = 0
KPG1 232138Z 15005KT 37/M00 A2985 RMK A01 T03661004  RH  010%=      5-min Rain = 0
KPG1 232139Z 15006KT 37/01 A2985 RMK A01 T03660005  RH  010%=      5-min Rain = 0
KPG1 232140Z 17005KT 37/00 A2985 RMK A01 T03660004  RH  010%=      5-min Rain = 0
KPG1 232141Z 17005KT 37/00 A2985 RMK A01 T03680002  RH  010%=      5-min Rain = 0
KPG1 232142Z 18004KT 37/M01 A2985 RMK A01 T03691005  RH  009%=      5-min Rain = 0
KPG1 232143Z 19002KT 37/01 A2985 RMK A01 T03700010  RH  010%=      5-min Rain = 0
KPG1 232144Z 23001KT 37/00 A2985 RMK A01 T03730004  RH  010%=      5-min Rain = 0
KPG1 232145Z 18002KT 37/00 A2985 RMK A01 T03730002  RH  010%=      5-min Rain = 0
KPG1 232146Z 15004KT 37/02 A2985 RMK A01 T03740015  RH  011%=      5-min Rain = 0
KPG1 232147Z 17004KT 38/01 A2984 RMK A01 T03750010  RH  010%=      5-min Rain = 0
KPG1 232148Z 23004KT 38/02 A2984 RMK A01 T03750019  RH  011%=      5-min Rain = 0
KPG1 232149Z 25005KT 38/00 A2984 RMK A01 T03750003  RH  010%=      5-min Rain = 0
KPG1 232150Z 22005KT 37/02 A2984 RMK A01 T03730015  RH  011%=      5-min Rain = 0
KPG1 232151Z 21008KT 38/01 A2984 RMK A01 T03750007  RH  010%=      5-min Rain = 0
KPG1 232152Z 21008KT 37/00 A2984 RMK A01 T03740002  RH  010%=      5-min Rain = 0
KPG1 232153Z 19009KT 37/01 A2984 RMK A01 T03740011  RH  010%=      5-min Rain = 0
KPG1 232154Z 21007KT 38/01 A2984 RMK A01 T03760008  RH  010%=      5-min Rain = 0
KPG1 232155Z 21005KT 38/M01 A2984 RMK A01 T03751006  RH  009%=      5-min Rain = 0
KPG1 232156Z 18004KT 37/00 A2984 RMK A01 T037200-0  RH  010%=      5-min Rain = 0
KPG1 232157Z 19005KT 37/M01 A2984 RMK A01 T03711007  RH  009%=      5-min Rain = 0
KPG1 232158Z 20003KT 37/M01 A2984 RMK A01 T03691013  RH  009%=      5-min Rain = 0
KPG1 232159Z 18002KT 37/M01 A2984 RMK A01 T03671012  RH  009%=      5-min Rain = 0
KPG1 232200Z 12003KT 37/01 A2984 RMK A01 T03660006  RH  010%=      5-min Rain = 0
KPG1 232201Z 07002KT 37/00 A2984 RMK A01 T03670004  RH  010%=      5-min Rain = 0
KPG1 232202Z 05001KT 37/00 A2984 RMK A01 T03670002  RH  010%=      5-min Rain = 0
KPG1 232203Z 08001KT 37/00 A2984 RMK A01 T036700-0  RH  010%=      5-min Rain = 0
KPG1 232204Z 09001KT 37/00 A2984 RMK A01 T03670003  RH  010%=      5-min Rain = 0
KPG1 232205Z 09000KT 37/01 A2984 RMK A01 T03680009  RH  010%=      5-min Rain = 0
KPG1 232206Z 27001KT 37/01 A2984 RMK A01 T03710010  RH  010%=      5-min Rain = 0
KPG1 232207Z 16001KT 37/00 A2984 RMK A01 T03740004  RH  010%=      5-min Rain = 0
KPG1 232208Z 05001KT 38/01 A2984 RMK A01 T03750014  RH  011%=      5-min Rain = 0
KPG1 232209Z 33000KT 38/02 A2984 RMK A01 T03760019  RH  011%=      5-min Rain = 0
KPG1 232210Z 33001KT 38/01 A2984 RMK A01 T03780009  RH  010%=      5-min Rain = 0
KPG1 232211Z 05000KT 38/02 A2984 RMK A01 T03790017  RH  011%=      5-min Rain = 0
KPG1 232212Z 12001KT 38/02 A2984 RMK A01 T03800024  RH  011%=      5-min Rain = 0
KPG1 232213Z 10003KT 38/02 A2984 RMK A01 T03810021  RH  011%=      5-min Rain = 0
KPG1 232214Z 07001KT 38/02 A2983 RMK A01 T03800019  RH  011%=      5-min Rain = 0
KPG1 232215Z 06004KT 38/03 A2983 RMK A01 T03800031  RH  012%=      5-min Rain = 0
KPG1 232216Z 35009KT 38/02 A2983 RMK A01 T03790017  RH  010%=      5-min Rain = 0
KPG1 232217Z 32008KT 38/00 A2983 RMK A01 T03760004  RH  010%=      5-min Rain = 0
KPG1 232218Z 32006KT 37/00 A2983 RMK A01 T037300-0  RH  010%=      5-min Rain = 0
KPG1 232219Z 33006KT 37/01 A2983 RMK A01 T03720007  RH  010%=      5-min Rain = 0
KPG1 232220Z 35002KT 37/M01 A2983 RMK A01 T03701005  RH  009%=      5-min Rain = 0
KPG1 232221Z 30003KT 37/01 A2983 RMK A01 T03690009  RH  010%=      5-min Rain = 0
KPG1 232222Z 27003KT 37/02 A2983 RMK A01 T03710016  RH  011%=      5-min Rain = 0
KPG1 232223Z 24006KT 37/02 A2983 RMK A01 T03740017  RH  011%=      5-min Rain = 0
KPG1 232224Z 24008KT 38/01 A2983 RMK A01 T03750014  RH  010%=      5-min Rain = 0
KPG1 232225Z 24006KT 38/01 A2983 RMK A01 T03760007  RH  010%=      5-min Rain = 0
KPG1 232226Z 24005KT 38/00 A2983 RMK A01 T03750004  RH  010%=      5-min Rain = 0
KPG1 232227Z 23002KT 37/M00 A2983 RMK A01 T03731001  RH  010%=      5-min Rain = 0
KPG1 232228Z 25002KT 37/00 A2983 RMK A01 T03730001  RH  010%=      5-min Rain = 0
KPG1 232229Z 17003KT 37/01 A2983 RMK A01 T03730011  RH  010%=      5-min Rain = 0
KPG1 232230Z 17002KT 38/01 A2983 RMK A01 T03750011  RH  010%=      5-min Rain = 0
KPG1 232231Z 20001KT 38/01 A2983 RMK A01 T03750006  RH  010%=      5-min Rain = 0
KPG1 232232Z 20001KT 38/M00 A2983 RMK A01 T03761004  RH  009%=      5-min Rain = 0
KPG1 232233Z 22000KT 38/00 A2983 RMK A01 T03770002  RH  010%=      5-min Rain = 0
KPG1 232234Z 11000KT 38/01 A2983 RMK A01 T03790005  RH  010%=      5-min Rain = 0
KPG1 232235Z 12001KT 38/02 A2983 RMK A01 T03810020  RH  011%=      5-min Rain = 0
KPG1 232236Z 14002KT 38/03 A2983 RMK A01 T03810026  RH  011%=      5-min Rain = 0
KPG1 232237Z 18004KT 38/02 A2983 RMK A01 T03790019  RH  011%=      5-min Rain = 0
KPG1 232238Z 19006KT 38/02 A2983 RMK A01 T03790023  RH  011%=      5-min Rain = 0
KPG1 232239Z 19007KT 38/01 A2983 RMK A01 T03800009  RH  010%=      5-min Rain = 0
KPG1 232240Z 19005KT 38/00 A2983 RMK A01 T037700-0  RH  009%=      5-min Rain = 0
KPG1 232241Z 21006KT 38/01 A2983 RMK A01 T03750005  RH  010%=      5-min Rain = 0
KPG1 232242Z 21004KT 37/01 A2983 RMK A01 T03740006  RH  010%=      5-min Rain = 0
KPG1 232243Z 23004KT 38/00 A2983 RMK A01 T03750002  RH  010%=      5-min Rain = 0
KPG1 232244Z 23004KT 38/02 A2983 RMK A01 T03750015  RH  011%=      5-min Rain = 0
KPG1 232245Z 20005KT 38/00 A2983 RMK A01 T03760003  RH  010%=      5-min Rain = 0
KPG1 232246Z 25004KT 38/01 A2983 RMK A01 T03750008  RH  010%=      5-min Rain = 0
KPG1 232247Z 22005KT 37/02 A2983 RMK A01 T03740018  RH  011%=      5-min Rain = 0
KPG1 232248Z 20006KT 38/01 A2983 RMK A01 T03760014  RH  010%=      5-min Rain = 0
KPG1 232249Z 21004KT 38/01 A2982 RMK A01 T03750010  RH  010%=      5-min Rain = 0
KPG1 232250Z 24007G14KT 38/02 A2982 RMK A01 T03760020  RH  011%=      5-min Rain = 0
KPG1 232251Z 25013KT 38/01 A2982 RMK A01 T03760012  RH  010%=      5-min Rain = 0
KPG1 232252Z 23010KT 37/01 A2982 RMK A01 T03730006  RH  010%=      5-min Rain = 0
KPG1 232253Z 23007KT 37/M00 A2982 RMK A01 T03711002  RH  010%=      5-min Rain = 0
KPG1 232254Z 28004KT 37/01 A2982 RMK A01 T03700007  RH  010%=      5-min Rain = 0
KPG1 232255Z 31002KT 37/01 A2982 RMK A01 T03700006  RH  010%=      5-min Rain = 0
KPG1 232256Z 01001KT 37/00 A2982 RMK A01 T03700004  RH  010%=      5-min Rain = 0
KPG1 232257Z 04000KT 37/M01 A2982 RMK A01 T03711005  RH  009%=      5-min Rain = 0
KPG1 232258Z 34002KT 37/00 A2982 RMK A01 T03720001  RH  010%=      5-min Rain = 0
KPG1 232259Z 31004KT 37/00 A2982 RMK A01 T03720004  RH  010%=      5-min Rain = 0
KPG1 232300Z 28005KT 37/01 A2982 RMK A01 T03710012  RH  011%=      5-min Rain = 0
KPG1 232301Z 25003KT 37/01 A2982 RMK A01 T03720006  RH  010%=      5-min Rain = 0
KPG1 232302Z 28001KT 37/00 A2982 RMK A01 T037200-0  RH  010%=      5-min Rain = 0
KPG1 232303Z 04000KT 37/01 A2982 RMK A01 T03730010  RH  010%=      5-min Rain = 0
KPG1 232304Z 25002KT 38/01 A2982 RMK A01 T03760007  RH  010%=      5-min Rain = 0
KPG1 232305Z 25004KT 38/02 A2982 RMK A01 T03780015  RH  010%=      5-min Rain = 0
KPG1 232306Z 24004KT 38/02 A2982 RMK A01 T03780023  RH  011%=      5-min Rain = 0
KPG1 232307Z 28004KT 38/01 A2982 RMK A01 T03780010  RH  010%=      5-min Rain = 0
KPG1 232308Z 29005KT 38/01 A2982 RMK A01 T03760007  RH  010%=      5-min Rain = 0
KPG1 232309Z 30005KT 37/00 A2982 RMK A01 T03730002  RH  010%=      5-min Rain = 0
KPG1 232310Z 32004KT 37/M00 A2982 RMK A01 T03721003  RH  009%=      5-min Rain = 0
KPG1 232311Z 33001KT 37/M00 A2982 RMK A01 T03701003  RH  010%=      5-min Rain = 0
KPG1 232312Z 00001KT 37/02 A2982 RMK A01 T03700016  RH  011%=      5-min Rain = 0
KPG1 232313Z 34001KT 37/02 A2982 RMK A01 T03710020  RH  011%=      5-min Rain = 0
KPG1 232314Z 31001KT 37/02 A2982 RMK A01 T03740015  RH  011%=      5-min Rain = 0
KPG1 232315Z 27004KT 38/02 A2982 RMK A01 T03760015  RH  010%=      5-min Rain = 0
KPG1 232316Z 26006KT 38/02 A2982 RMK A01 T03770019  RH  011%=      5-min Rain = 0
KPG1 232317Z 26006KT 38/02 A2982 RMK A01 T03760022  RH  011%=      5-min Rain = 0
KPG1 232318Z 27007KT 38/02 A2981 RMK A01 T03760017  RH  011%=      5-min Rain = 0
KPG1 232319Z 27007KT 38/01 A2981 RMK A01 T03760010  RH  010%=      5-min Rain = 0
KPG1 232320Z 27008KT 37/01 A2981 RMK A01 T03740009  RH  010%=      5-min Rain = 0
KPG1 232321Z 27007KT 37/01 A2981 RMK A01 T03730006  RH  010%=      5-min Rain = 0
KPG1 232322Z 29006KT 37/01 A2981 RMK A01 T03720013  RH  011%=      5-min Rain = 0
KPG1 232323Z 30004KT 37/00 A2981 RMK A01 T03720000  RH  010%=      5-min Rain = 0
KPG1 232324Z 29004KT 37/00 A2981 RMK A01 T03720003  RH  010%=      5-min Rain = 0
KPG1 232325Z 27005KT 37/00 A2981 RMK A01 T03720002  RH  010%=      5-min Rain = 0
KPG1 232326Z 26007KT 37/02 A2981 RMK A01 T03720017  RH  011%=      5-min Rain = 0
KPG1 232327Z 26009KT 37/01 A2981 RMK A01 T03720010  RH  010%=      5-min Rain = 0
KPG1 232328Z 24009KT 37/01 A2981 RMK A01 T03720009  RH  010%=      5-min Rain = 0
KPG1 232329Z 24008KT 37/00 A2981 RMK A01 T03720004  RH  010%=      5-min Rain = 0
KPG1 232330Z 22009KT 37/00 A2981 RMK A01 T03720002  RH  010%=      5-min Rain = 0
KPG1 232331Z 23009KT 37/01 A2981 RMK A01 T03730007  RH  010%=      5-min Rain = 0
KPG1 232332Z 24009KT 37/M00 A2981 RMK A01 T03731004  RH  009%=      5-min Rain = 0
KPG1 232333Z 24008KT 37/M01 A2981 RMK A01 T03731005  RH  009%=      5-min Rain = 0
KPG1 232334Z 25006KT 37/M01 A2981 RMK A01 T03721005  RH  009%=      5-min Rain = 0
KPG1 232335Z 23004KT 37/M00 A2981 RMK A01 T03711001  RH  010%=      5-min Rain = 0
KPG1 232336Z 22007KT 37/00 A2981 RMK A01 T03710004  RH  010%=      5-min Rain = 0
KPG1 232337Z 22006KT 37/M00 A2981 RMK A01 T03721003  RH  009%=      5-min Rain = 0
KPG1 232338Z 22005KT 37/M00 A2981 RMK A01 T03731002  RH  009%=      5-min Rain = 0
KPG1 232339Z 23005KT 37/01 A2981 RMK A01 T03740011  RH  010%=      5-min Rain = 0
KPG1 232340Z 24005KT 38/01 A2981 RMK A01 T03760013  RH  010%=      5-min Rain = 0
KPG1 232341Z 22006KT 38/01 A2981 RMK A01 T03770011  RH  010%=      5-min Rain = 0
KPG1 232342Z 22006KT 38/00 A2981 RMK A01 T03770004  RH  010%=      5-min Rain = 0
KPG1 232343Z 22007KT 38/00 A2981 RMK A01 T037600-0  RH  009%=      5-min Rain = 0
KPG1 232344Z 22007KT 37/00 A2981 RMK A01 T03740003  RH  010%=      5-min Rain = 0
KPG1 232345Z 21009KT 37/00 A2981 RMK A01 T03740003  RH  010%=      5-min Rain = 0
KPG1 232346Z 22009KT 37/01 A2981 RMK A01 T03730006  RH  010%=      5-min Rain = 0
KPG1 232347Z 25006KT 37/01 A2981 RMK A01 T03730007  RH  010%=      5-min Rain = 0
KPG1 232348Z 26005KT 37/01 A2981 RMK A01 T03720011  RH  010%=      5-min Rain = 0
KPG1 232349Z 23005KT 37/01 A2981 RMK A01 T03710011  RH  010%=      5-min Rain = 0
KPG1 232350Z 24007KT 37/00 A2981 RMK A01 T037200-0  RH  010%=      5-min Rain = 0
KPG1 232351Z 23007KT 37/01 A2981 RMK A01 T03720005  RH  010%=      5-min Rain = 0
KPG1 232352Z 24007KT 37/01 A2981 RMK A01 T03730010  RH  010%=      5-min Rain = 0
KPG1 232353Z 23006KT 37/01 A2981 RMK A01 T03740007  RH  010%=      5-min Rain = 0
KPG1 232354Z 23006KT 38/00 A2981 RMK A01 T03750002  RH  010%=      5-min Rain = 0
KPG1 232355Z 22006KT 37/M00 A2981 RMK A01 T03741004  RH  009%=      5-min Rain = 0
KPG1 232356Z 22006KT 37/M02 A2981 RMK A01 T03731015  RH  009%=      5-min Rain = 0
KPG1 232357Z 21008KT 37/M01 A2981 RMK A01 T03731009  RH  009%=      5-min Rain = 0
KPG1 232358Z 21008KT 37/M01 A2981 RMK A01 T03721012  RH  009%=      5-min Rain = 0
KPG1 232359Z 21007KT 37/M01 A2981 RMK A01 T03711014  RH  009%=      5-min Rain = 0
KPG1 240000Z 21006KT 37/M01 A2981 RMK A01 T03711009  RH  009%=      5-min Rain = 0
KPG1 240001Z 20007KT 37/01 A2981 RMK A01 T03710008  RH  010%=      5-min Rain = 0
KPG1 240002Z 21007KT 37/00 A2981 RMK A01 T03720003  RH  010%=      5-min Rain = 0
KPG1 240003Z 22007KT 37/01 A298 RMK A01 T03720010  RH  010%=      5-min Rain = 0
KPG1 240004Z 21007KT 37/00 A298 RMK A01 T03730002  RH  010%=      5-min Rain = 0
KPG1 240005Z 21007KT 37/M00 A298 RMK A01 T03731001  RH  009%=      5-min Rain = 0
KPG1 240006Z 20007KT 37/01 A2981 RMK A01 T03730007  RH  010%=      5-min Rain = 0
KPG1 240007Z 20007KT 37/00 A298 RMK A01 T03730000  RH  010%=      5-min Rain = 0
KPG1 240008Z 21006KT 37/M00 A298 RMK A01 T03721003  RH  009%=      5-min Rain = 0
KPG1 240009Z 20006KT 37/M01 A298 RMK A01 T03721006  RH  009%=      5-min Rain = 0
KPG1 240010Z 20005KT 37/M00 A298 RMK A01 T03711003  RH  009%=      5-min Rain = 0
KPG1 240011Z 20005KT 37/01 A2981 RMK A01 T03700005  RH  010%=      5-min Rain = 0
KPG1 240012Z 20006KT 37/01 A2981 RMK A01 T03710009  RH  010%=      5-min Rain = 0
KPG1 240013Z 21009KT 37/01 A2981 RMK A01 T03720008  RH  010%=      5-min Rain = 0
KPG1 240014Z 21009KT 37/00 A2981 RMK A01 T03710001  RH  010%=      5-min Rain = 0
KPG1 240015Z 21009KT 37/M00 A2981 RMK A01 T03721003  RH  009%=      5-min Rain = 0
KPG1 240016Z 21007KT 37/00 A2981 RMK A01 T03710002  RH  010%=      5-min Rain = 0
KPG1 240017Z 20008KT 37/00 A2981 RMK A01 T03710002  RH  010%=      5-min Rain = 0
KPG1 240018Z 21008KT 37/00 A2981 RMK A01 T03700003  RH  010%=      5-min Rain = 0
KPG1 240019Z 20008KT 37/M00 A2981 RMK A01 T03711001  RH  010%=      5-min Rain = 0
KPG1 240020Z 20007KT 37/00 A2981 RMK A01 T03710002  RH  010%=      5-min Rain = 0
KPG1 240021Z 21006KT 37/00 A2981 RMK A01 T03700004  RH  010%=      5-min Rain = 0
KPG1 240022Z 23005KT 37/01 A2981 RMK A01 T03710009  RH  010%=      5-min Rain = 0
KPG1 240023Z 22005KT 37/01 A2981 RMK A01 T03710010  RH  010%=      5-min Rain = 0
KPG1 240024Z 23005KT 37/M01 A2981 RMK A01 T03721005  RH  009%=      5-min Rain = 0
KPG1 240025Z 21004KT 37/M00 A2981 RMK A01 T03711001  RH  010%=      5-min Rain = 0
KPG1 240026Z 21005KT 37/01 A2981 RMK A01 T03710005  RH  010%=      5-min Rain = 0
KPG1 240027Z 21007KT 37/00 A2981 RMK A01 T03710001  RH  010%=      5-min Rain = 0
KPG1 240028Z 21005KT 37/00 A2981 RMK A01 T03700001  RH  010%=      5-min Rain = 0
KPG1 240029Z 21005KT 37/M00 A2981 RMK A01 T03691002  RH  010%=      5-min Rain = 0
KPG1 240030Z 21005KT 37/M00 A2981 RMK A01 T03691002  RH  010%=      5-min Rain = 0
KPG1 240031Z 21006KT 37/M00 A2981 RMK A01 T03691001  RH  010%=      5-min Rain = 0
KPG1 240032Z 21005KT 37/00 A2981 RMK A01 T03690001  RH  010%=      5-min Rain = 0
KPG1 240033Z 22006KT 37/M00 A2981 RMK A01 T03691002  RH  010%=      5-min Rain = 0
KPG1 240034Z 22004KT 37/M01 A2981 RMK A01 T03681009  RH  009%=      5-min Rain = 0
KPG1 240035Z 21003KT 37/01 A2981 RMK A01 T03680006  RH  010%=      5-min Rain = 0
KPG1 240036Z 21003KT 37/01 A2981 RMK A01 T03680008  RH  010%=      5-min Rain = 0
KPG1 240037Z 22004KT 37/02 A2981 RMK A01 T03690018  RH  011%=      5-min Rain = 0
KPG1 240038Z 22004KT 37/00 A2981 RMK A01 T03690004  RH  010%=      5-min Rain = 0
KPG1 240039Z 24004KT 37/01 A2981 RMK A01 T03690012  RH  011%=      5-min Rain = 0
KPG1 240040Z 24003KT 37/02 A2981 RMK A01 T03690018  RH  011%=      5-min Rain = 0
KPG1 240041Z 25004KT 37/01 A2981 RMK A01 T03690011  RH  011%=      5-min Rain = 0
KPG1 240042Z 28004KT 37/02 A2981 RMK A01 T03690018  RH  011%=      5-min Rain = 0
KPG1 240043Z 27006KT 37/01 A2981 RMK A01 T03690008  RH  010%=      5-min Rain = 0
KPG1 240044Z 26004KT 37/01 A2981 RMK A01 T03670012  RH  011%=      5-min Rain = 0
KPG1 240045Z 27004KT 37/02 A2981 RMK A01 T03670018  RH  011%=      5-min Rain = 0
KPG1 240046Z 30004KT 37/01 A2981 RMK A01 T03660010  RH  011%=      5-min Rain = 0
KPG1 240047Z 31003KT 37/M01 A2981 RMK A01 T03651005  RH  010%=      5-min Rain = 0
KPG1 240048Z 33003KT 37/01 A2981 RMK A01 T03650006  RH  010%=      5-min Rain = 0
KPG1 240049Z 32002KT 37/01 A2981 RMK A01 T03650011  RH  011%=      5-min Rain = 0
KPG1 240050Z 30001KT 37/01 A2981 RMK A01 T03650009  RH  011%=      5-min Rain = 0
KPG1 240051Z 30001KT 37/01 A2981 RMK A01 T03670006  RH  010%=      5-min Rain = 0
KPG1 240052Z 30002KT 37/02 A2981 RMK A01 T03680021  RH  011%=      5-min Rain = 0
KPG1 240053Z 30003KT 37/01 A2981 RMK A01 T03690006  RH  010%=      5-min Rain = 0
KPG1 240054Z 29004KT 37/02 A2981 RMK A01 T03690019  RH  011%=      5-min Rain = 0
KPG1 240055Z 30003KT 37/02 A2981 RMK A01 T03680023  RH  012%=      5-min Rain = 0
KPG1 240056Z 32002KT 37/02 A2982 RMK A01 T03650023  RH  012%=      5-min Rain = 0
KPG1 240057Z 31003KT 36/02 A2982 RMK A01 T03630017  RH  011%=      5-min Rain = 0
KPG1 240058Z 32004KT 36/02 A2982 RMK A01 T03620016  RH  011%=      5-min Rain = 0
KPG1 240059Z 31004KT 36/01 A2982 RMK A01 T03600011  RH  011%=      5-min Rain = 0
KPG1 240100Z 31003KT 36/00 A2982 RMK A01 T03590004  RH  011%=      5-min Rain = 0
KPG1 240101Z 31003KT 36/01 A2982 RMK A01 T03590011  RH  011%=      5-min Rain = 0
KPG1 240102Z 31003KT 36/01 A2982 RMK A01 T03590005  RH  011%=      5-min Rain = 0
KPG1 240103Z 31004KT 36/01 A2982 RMK A01 T03590008  RH  011%=      5-min Rain = 0
KPG1 240104Z 31005KT 36/M00 A2982 RMK A01 T03591003  RH  010%=      5-min Rain = 0
KPG1 240105Z 31005KT 36/M00 A2982 RMK A01 T03591004  RH  010%=      5-min Rain = 0
KPG1 240106Z 32005KT 36/M01 A2982 RMK A01 T03591006  RH  010%=      5-min Rain = 0
KPG1 240107Z 34004KT 36/M01 A2982 RMK A01 T03591007  RH  010%=      5-min Rain = 0
KPG1 240108Z 33003KT 36/M01 A2982 RMK A01 T03591011  RH  010%=      5-min Rain = 0
KPG1 240109Z 33003KT 36/00 A2982 RMK A01 T03580004  RH  011%=      5-min Rain = 0
KPG1 240110Z 33003KT 36/00 A2982 RMK A01 T03560002  RH  011%=      5-min Rain = 0
KPG1 240111Z 33003KT 35/00 A2982 RMK A01 T03540001  RH  011%=      5-min Rain = 0
KPG1 240112Z 32003KT 35/00 A2982 RMK A01 T03530000  RH  011%=      5-min Rain = 0
KPG1 240113Z 33003KT 35/M01 A2982 RMK A01 T03531005  RH  010%=      5-min Rain = 0
KPG1 240114Z 32003KT 35/M00 A2982 RMK A01 T03541003  RH  010%=      5-min Rain = 0
KPG1 240115Z 33004KT 35/02 A2982 RMK A01 T03530019  RH  012%=      5-min Rain = 0
KPG1 240116Z 34005KT 35/01 A2982 RMK A01 T03490008  RH  012%=      5-min Rain = 0
KPG1 240117Z 34005KT 35/M00 A2982 RMK A01 T03471001  RH  011%=      5-min Rain = 0
KPG1 240118Z 35005KT 35/M00 A2982 RMK A01 T03461001  RH  011%=      5-min Rain = 0
KPG1 240119Z 34005KT 35/M00 A2982 RMK A01 T03451001  RH  011%=      5-min Rain = 0
KPG1 240120Z 34004KT 34/00 A2982 RMK A01 T03440003  RH  011%=      5-min Rain = 0
KPG1 240121Z 35004KT 34/00 A2982 RMK A01 T03430001  RH  011%=      5-min Rain = 0
KPG1 240122Z 35005KT 34/00 A2982 RMK A01 T03420001  RH  011%=      5-min Rain = 0
KPG1 240123Z 35004KT 34/00 A2982 RMK A01 T03410004  RH  012%=      5-min Rain = 0
KPG1 240124Z 35004KT 34/00 A2982 RMK A01 T03400001  RH  012%=      5-min Rain = 0
KPG1 240125Z 35004KT 34/M00 A2982 RMK A01 T03391002  RH  011%=      5-min Rain = 0
KPG1 240126Z 34004KT 34/00 A2982 RMK A01 T03380003  RH  012%=      5-min Rain = 0
KPG1 240127Z 34004KT 34/00 A2982 RMK A01 T03370002  RH  012%=      5-min Rain = 0
KPG1 240128Z 34004KT 34/01 A2982 RMK A01 T03360007  RH  012%=      5-min Rain = 0
KPG1 240129Z 34004KT 33/01 A2982 RMK A01 T03340009  RH  013%=      5-min Rain = 0
KPG1 240130Z 34004KT 33/01 A2982 RMK A01 T03310011  RH  013%=      5-min Rain = 0
KPG1 240131Z 34004KT 33/M00 A2982 RMK A01 T03311002  RH  012%=      5-min Rain = 0
KPG1 240132Z 34005KT 33/M00 A2982 RMK A01 T03321001  RH  012%=      5-min Rain = 0
KPG1 240133Z 33005KT 33/01 A2982 RMK A01 T03330005  RH  012%=      5-min Rain = 0
KPG1 240134Z 32005KT 33/01 A2983 RMK A01 T03320005  RH  012%=      5-min Rain = 0
KPG1 240135Z 32005KT 33/M01 A2983 RMK A01 T03341013  RH  011%=      5-min Rain = 0
KPG1 240136Z 30005KT 34/M01 A2983 RMK A01 T03381011  RH  011%=      5-min Rain = 0
KPG1 240137Z 31005KT 34/M01 A2983 RMK A01 T03411012  RH  011%=      5-min Rain = 0
KPG1 240138Z 33004KT 34/M01 A2983 RMK A01 T03421005  RH  011%=      5-min Rain = 0
KPG1 240139Z 32004KT 34/M00 A2983 RMK A01 T03411002  RH  011%=      5-min Rain = 0
KPG1 240140Z 32005KT 34/M00 A2983 RMK A01 T03401002  RH  011%=      5-min Rain = 0
KPG1 240141Z 32004KT 34/M00 A2983 RMK A01 T03391002  RH  011%=      5-min Rain = 0
KPG1 240142Z 32004KT 34/M01 A2983 RMK A01 T03391008  RH  011%=      5-min Rain = 0
KPG1 240143Z 32003KT 34/M01 A2983 RMK A01 T03401011  RH  011%=      5-min Rain = 0
KPG1 240144Z 33003KT 34/M01 A2983 RMK A01 T03411010  RH  011%=      5-min Rain = 0
KPG1 240145Z 33004KT 34/M00 A2983 RMK A01 T03411004  RH  011%=      5-min Rain = 0
KPG1 240146Z 33004KT 34/M01 A2983 RMK A01 T03391007  RH  011%=      5-min Rain = 0
KPG1 240147Z 33004KT 34/M02 A2983 RMK A01 T03391018  RH  010%=      5-min Rain = 0
KPG1 240148Z 33004KT 34/M02 A2983 RMK A01 T03401017  RH  010%=      5-min Rain = 0
KPG1 240149Z 33004KT 34/M02 A2983 RMK A01 T03401015  RH  010%=      5-min Rain = 0
KPG1 240150Z 33004KT 34/M01 A2983 RMK A01 T03401009  RH  011%=      5-min Rain = 0
KPG1 240151Z 34004KT 34/M01 A2983 RMK A01 T03381010  RH  011%=      5-min Rain = 0
KPG1 240152Z 34005KT 34/M02 A2983 RMK A01 T03361015  RH  011%=      5-min Rain = 0
KPG1 240153Z 33006KT 34/M01 A2983 RMK A01 T03351013  RH  011%=      5-min Rain = 0
KPG1 240154Z 33006KT 34/M02 A2983 RMK A01 T03351021  RH  010%=      5-min Rain = 0
KPG1 240155Z 33006KT 34/M02 A2983 RMK A01 T03351024  RH  010%=      5-min Rain = 0
KPG1 240156Z 34006KT 34/M03 A2983 RMK A01 T03361025  RH  010%=      5-min Rain = 0
KPG1 240157Z 33007KT 34/M03 A2983 RMK A01 T03371027  RH  010%=      5-min Rain = 0
KPG1 240158Z 33007KT 34/M03 A2983 RMK A01 T03381033  RH  009%=      5-min Rain = 0
KPG1 240159Z 34006KT 34/M03 A2983 RMK A01 T03401029  RH  009%=      5-min Rain = 0
KPG1 240200Z 33006KT 34/M03 A2983 RMK A01 T03401029  RH  009%=      5-min Rain = 0
KPG1 240201Z 32006KT 34/M03 A2983 RMK A01 T03401028  RH  009%=      5-min Rain = 0
KPG1 240202Z 34006KT 34/M03 A2983 RMK A01 T03381031  RH  009%=      5-min Rain = 0
KPG1 240203Z 34006KT 34/M03 A2983 RMK A01 T03391034  RH  009%=      5-min Rain = 0
KPG1 240204Z 33006KT 34/M03 A2983 RMK A01 T03401027  RH  009%=      5-min Rain = 0
KPG1 240205Z 33007KT 34/M03 A2983 RMK A01 T03391030  RH  009%=      5-min Rain = 0
KPG1 240206Z 33007KT 34/M03 A2983 RMK A01 T03381032  RH  009%=      5-min Rain = 0
KPG1 240207Z 33007KT 34/M04 A2983 RMK A01 T03381035  RH  009%=      5-min Rain = 0
KPG1 240208Z 32006KT 34/M04 A2983 RMK A01 T03391039  RH  009%=      5-min Rain = 0
KPG1 240209Z 33006KT 34/M04 A2983 RMK A01 T03411037  RH  009%=      5-min Rain = 0
KPG1 240210Z 34005KT 34/M03 A2983 RMK A01 T03411034  RH  009%=      5-min Rain = 0
KPG1 240211Z 34005KT 34/M03 A2983 RMK A01 T03391027  RH  009%=      5-min Rain = 0
KPG1 240212Z 34005KT 34/M03 A2983 RMK A01 T03361029  RH  010%=      5-min Rain = 0
KPG1 240213Z 34005KT 33/M03 A2983 RMK A01 T03341030  RH  010%=      5-min Rain = 0
KPG1 240214Z 34005KT 33/M03 A2983 RMK A01 T03341029  RH  010%=      5-min Rain = 0
KPG1 240215Z 34005KT 33/M02 A2983 RMK A01 T03331024  RH  010%=      5-min Rain = 0
KPG1 240216Z 33005KT 33/M02 A2984 RMK A01 T03311020  RH  010%=      5-min Rain = 0
KPG1 240217Z 33005KT 33/M03 A2984 RMK A01 T03291026  RH  010%=      5-min Rain = 0
KPG1 240218Z 33005KT 33/M04 A2984 RMK A01 T03301035  RH  009%=      5-min Rain = 0
KPG1 240219Z 34005KT 33/M04 A2984 RMK A01 T03341038  RH  009%=      5-min Rain = 0
KPG1 240220Z 34006KT 34/M03 A2984 RMK A01 T03361032  RH  009%=      5-min Rain = 0
KPG1 240221Z 33006KT 34/M03 A2984 RMK A01 T03351027  RH  010%=      5-min Rain = 0
KPG1 240222Z 34006KT 33/M04 A2984 RMK A01 T03331035  RH  009%=      5-min Rain = 0
KPG1 240223Z 34007KT 33/M04 A2984 RMK A01 T03341038  RH  009%=      5-min Rain = 0
KPG1 240224Z 34006KT 34/M04 A2984 RMK A01 T03361039  RH  009%=      5-min Rain = 0
KPG1 240225Z 34006KT 34/M04 A2984 RMK A01 T03371039  RH  009%=      5-min Rain = 0
KPG1 240226Z 34006KT 34/M04 A2984 RMK A01 T03381037  RH  009%=      5-min Rain = 0
KPG1 240227Z 34006KT 34/M04 A2984 RMK A01 T03371037  RH  009%=      5-min Rain = 0
KPG1 240228Z 34006KT 34/M04 A2984 RMK A01 T03371038  RH  009%=      5-min Rain = 0
KPG1 240229Z 33006KT 34/M04 A2984 RMK A01 T03371041  RH  009%=      5-min Rain = 0
KPG1 240230Z 34006KT 34/M04 A2984 RMK A01 T03381041  RH  009%=      5-min Rain = 0
KPG1 240231Z 34006KT 34/M04 A2984 RMK A01 T03381040  RH  009%=      5-min Rain = 0
KPG1 240232Z 34006KT 34/M04 A2984 RMK A01 T03381040  RH  009%=      5-min Rain = 0
KPG1 240233Z 33006KT 34/M04 A2984 RMK A01 T03381038  RH  009%=      5-min Rain = 0
KPG1 240234Z 33005KT 34/M04 A2984 RMK A01 T03371038  RH  009%=      5-min Rain = 0
KPG1 240235Z 34005KT 34/M04 A2984 RMK A01 T03361039  RH  009%=      5-min Rain = 0
KPG1 240236Z 33006KT 34/M04 A2984 RMK A01 T03361041  RH  009%=      5-min Rain = 0
KPG1 240237Z 34005KT 34/M04 A2984 RMK A01 T03371042  RH  009%=      5-min Rain = 0
KPG1 240238Z 34005KT 34/M04 A2984 RMK A01 T03381044  RH  008%=      5-min Rain = 0
KPG1 240239Z 33005KT 34/M04 A2984 RMK A01 T03391043  RH  008%=      5-min Rain = 0
KPG1 240240Z 34006KT 34/M04 A2984 RMK A01 T03391043  RH  008%=      5-min Rain = 0
KPG1 240241Z 33006KT 34/M05 A2984 RMK A01 T03381045  RH  008%=      5-min Rain = 0
KPG1 240242Z 33006KT 34/M04 A2984 RMK A01 T03381044  RH  008%=      5-min Rain = 0
KPG1 240243Z 33006KT 34/M04 A2984 RMK A01 T03381043  RH  008%=      5-min Rain = 0
KPG1 240244Z 34006KT 34/M04 A2984 RMK A01 T03381043  RH  008%=      5-min Rain = 0
KPG1 240245Z 34006KT 34/M04 A2984 RMK A01 T03381044  RH  008%=      5-min Rain = 0
KPG1 240246Z 34006KT 34/M04 A2984 RMK A01 T03381044  RH  008%=      5-min Rain = 0
KPG1 240247Z 33006KT 34/M05 A2984 RMK A01 T03371047  RH  008%=      5-min Rain = 0
KPG1 240248Z 34006KT 34/M05 A2984 RMK A01 T03371046  RH  008%=      5-min Rain = 0
KPG1 240249Z 33006KT 34/M05 A2984 RMK A01 T03381047  RH  008%=      5-min Rain = 0
KPG1 240250Z 33005KT 34/M05 A2984 RMK A01 T03391048  RH  008%=      5-min Rain = 0
KPG1 240251Z 34005KT 34/M05 A2984 RMK A01 T03391049  RH  008%=      5-min Rain = 0
KPG1 240252Z 34006KT 34/M05 A2984 RMK A01 T03401048  RH  008%=      5-min Rain = 0
KPG1 240253Z 34006KT 34/M05 A2984 RMK A01 T03401046  RH  008%=      5-min Rain = 0
KPG1 240254Z 34006KT 34/M05 A2984 RMK A01 T03381047  RH  008%=      5-min Rain = 0
KPG1 240255Z 34005KT 34/M04 A2984 RMK A01 T03381040  RH  009%=      5-min Rain = 0
KPG1 240256Z 34004KT 33/M03 A2984 RMK A01 T03331030  RH  010%=      5-min Rain = 0
KPG1 240257Z 34005KT 33/M03 A2984 RMK A01 T03281028  RH  010%=      5-min Rain = 0
KPG1 240258Z 34006KT 32/M02 A2984 RMK A01 T03241023  RH  011%=      5-min Rain = 0
KPG1 240259Z 34005KT 32/M02 A2984 RMK A01 T03211019  RH  011%=      5-min Rain = 0
KPG1 240300Z 34005KT 32/M01 A2984 RMK A01 T03181013  RH  012%=      5-min Rain = 0
KPG1 240301Z 34005KT 31/M00 A2984 RMK A01 T03131001  RH  013%=      5-min Rain = 0
KPG1 240302Z 34005KT 31/00 A2984 RMK A01 T03050002  RH  014%=      5-min Rain = 0
KPG1 240303Z 34005KT 30/01 A2984 RMK A01 T02990009  RH  015%=      5-min Rain = 0
KPG1 240304Z 34005KT 29/01 A2984 RMK A01 T02930013  RH  017%=      5-min Rain = 0
KPG1 240305Z 33005KT 29/01 A2984 RMK A01 T02890013  RH  017%=      5-min Rain = 0
KPG1 240306Z 34005KT 29/M00 A2985 RMK A01 T02881001  RH  015%=      5-min Rain = 0
KPG1 240307Z 34005KT 29/00 A2985 RMK A01 T029000-0  RH  015%=      5-min Rain = 0
KPG1 240308Z 35005KT 29/00 A2985 RMK A01 T02920003  RH  015%=      5-min Rain = 0
KPG1 240309Z 36004KT 29/01 A2985 RMK A01 T02920008  RH  016%=      5-min Rain = 0
KPG1 240310Z 01003KT 29/00 A2985 RMK A01 T02910003  RH  015%=      5-min Rain = 0
KPG1 240311Z 02004KT 29/01 A2985 RMK A01 T02910008  RH  016%=      5-min Rain = 0
KPG1 240312Z 01004KT 29/M01 A2985 RMK A01 T02911007  RH  014%=      5-min Rain = 0
KPG1 240313Z 01003KT 30/M01 A2985 RMK A01 T02961012  RH  013%=      5-min Rain = 0
KPG1 240314Z 01004KT 30/M01 A2985 RMK A01 T02981006  RH  014%=      5-min Rain = 0
KPG1 240315Z 01003KT 30/M01 A2985 RMK A01 T02991014  RH  013%=      5-min Rain = 0
KPG1 240316Z 00003KT 30/M02 A2985 RMK A01 T03011015  RH  013%=      5-min Rain = 0
KPG1 240317Z 00004KT 30/M02 A2985 RMK A01 T03031020  RH  012%=      5-min Rain = 0
KPG1 240318Z 01003KT 31/M01 A2985 RMK A01 T03051008  RH  013%=      5-min Rain = 0
KPG1 240319Z 35003KT 30/01 A2985 RMK A01 T03030009  RH  015%=      5-min Rain = 0
KPG1 240320Z 35005KT 30/M00 A2985 RMK A01 T02981001  RH  014%=      5-min Rain = 0
KPG1 240321Z 00005KT 30/00 A2985 RMK A01 T02960002  RH  015%=      5-min Rain = 0
KPG1 240322Z 02004KT 29/01 A2985 RMK A01 T02920010  RH  016%=      5-min Rain = 0
KPG1 240323Z 35003KT 29/00 A2985 RMK A01 T02890000  RH  015%=      5-min Rain = 0
KPG1 240324Z 35005KT 29/M00 A2985 RMK A01 T02921001  RH  015%=      5-min Rain = 0
KPG1 240325Z 34005KT 30/M01 A2985 RMK A01 T02971005  RH  014%=      5-min Rain = 0
KPG1 240326Z 35005KT 30/00 A2985 RMK A01 T03010001  RH  014%=      5-min Rain = 0
KPG1 240327Z 36006KT 30/00 A2985 RMK A01 T03000002  RH  015%=      5-min Rain = 0
KPG1 240328Z 02007KT 30/M00 A2985 RMK A01 T03021001  RH  014%=      5-min Rain = 0
KPG1 240329Z 01007KT 30/00 A2985 RMK A01 T03040003  RH  014%=      5-min Rain = 0
KPG1 240330Z 01007KT 30/00 A2985 RMK A01 T03040003  RH  014%=      5-min Rain = 0
KPG1 240331Z 01008KT 30/01 A2985 RMK A01 T03030006  RH  015%=      5-min Rain = 0
KPG1 240332Z 01008KT 30/00 A2985 RMK A01 T03030003  RH  014%=      5-min Rain = 0
KPG1 240333Z 01007KT 31/01 A2985 RMK A01 T03050009  RH  015%=      5-min Rain = 0
KPG1 240334Z 01007KT 30/01 A2985 RMK A01 T03030012  RH  015%=      5-min Rain = 0
KPG1 240335Z 00009KT 30/01 A2985 RMK A01 T03000012  RH  016%=      5-min Rain = 0
KPG1 240336Z 00008KT 30/01 A2985 RMK A01 T02980012  RH  016%=      5-min Rain = 0
KPG1 240337Z 00008KT 30/01 A2985 RMK A01 T02970010  RH  016%=      5-min Rain = 0
KPG1 240338Z 00008KT 30/01 A2985 RMK A01 T02970013  RH  016%=      5-min Rain = 0
KPG1 240339Z 00008KT 30/01 A2985 RMK A01 T02950012  RH  016%=      5-min Rain = 0
KPG1 240340Z 00007KT 29/01 A2985 RMK A01 T02940011  RH  016%=      5-min Rain = 0
KPG1 240341Z 36007KT 29/01 A2985 RMK A01 T02930011  RH  016%=      5-min Rain = 0
KPG1 240342Z 36007KT 29/01 A2985 RMK A01 T02930009  RH  016%=      5-min Rain = 0
KPG1 240343Z 00007KT 29/01 A2986 RMK A01 T02920009  RH  016%=      5-min Rain = 0
KPG1 240344Z 00007KT 29/01 A2986 RMK A01 T02910012  RH  017%=      5-min Rain = 0
KPG1 240345Z 01007KT 29/01 A2986 RMK A01 T02890008  RH  016%=      5-min Rain = 0
KPG1 240346Z 01007KT 29/01 A2986 RMK A01 T02890007  RH  016%=      5-min Rain = 0
KPG1 240347Z 01007KT 29/01 A2986 RMK A01 T02890007  RH  016%=      5-min Rain = 0
KPG1 240348Z 01006KT 29/01 A2986 RMK A01 T02880008  RH  016%=      5-min Rain = 0
KPG1 240349Z 01005KT 29/01 A2986 RMK A01 T02860012  RH  017%=      5-min Rain = 0
KPG1 240350Z 02005KT 29/02 A2986 RMK A01 T02850017  RH  018%=      5-min Rain = 0
KPG1 240351Z 03006KT 28/02 A2986 RMK A01 T02820021  RH  019%=      5-min Rain = 0
KPG1 240352Z 03006KT 28/02 A2986 RMK A01 T02790016  RH  018%=      5-min Rain = 0
KPG1 240353Z 03006KT 28/02 A2986 RMK A01 T02800016  RH  018%=      5-min Rain = 0
KPG1 240354Z 03006KT 28/02 A2986 RMK A01 T02790019  RH  019%=      5-min Rain = 0
KPG1 240355Z 03006KT 28/02 A2986 RMK A01 T02780015  RH  018%=      5-min Rain = 0
KPG1 240356Z 03006KT 28/01 A2986 RMK A01 T02780010  RH  018%=      5-min Rain = 0
KPG1 240357Z 03006KT 28/01 A2986 RMK A01 T02800005  RH  017%=      5-min Rain = 0
KPG1 240358Z 03006KT 28/00 A2986 RMK A01 T02810001  RH  016%=      5-min Rain = 0
KPG1 240359Z 03006KT 28/00 A2986 RMK A01 T02830000  RH  016%=      5-min Rain = 0
KPG1 240400Z 04006KT 28/00 A2986 RMK A01 T02840001  RH  016%=      5-min Rain = 0
KPG1 240401Z 03006KT 28/01 A2986 RMK A01 T02840005  RH  016%=      5-min Rain = 0
KPG1 240402Z 03006KT 28/00 A2986 RMK A01 T02840003  RH  016%=      5-min Rain = 0
KPG1 240403Z 03006KT 28/00 A2986 RMK A01 T02840003  RH  016%=      5-min Rain = 0
KPG1 240404Z 04006KT 28/00 A2986 RMK A01 T02840002  RH  016%=      5-min Rain = 0
KPG1 240405Z 04006KT 28/00 A2986 RMK A01 T02840003  RH  016%=      5-min Rain = 0
KPG1 240406Z 04006KT 28/00 A2986 RMK A01 T02840003  RH  016%=      5-min Rain = 0
KPG1 240407Z 03006KT 28/00 A2986 RMK A01 T02830003  RH  016%=      5-min Rain = 0
KPG1 240408Z 03006KT 28/00 A2986 RMK A01 T02830002  RH  016%=      5-min Rain = 0
KPG1 240409Z 04006KT 28/00 A2986 RMK A01 T02830001  RH  016%=      5-min Rain = 0
KPG1 240410Z 04005KT 28/01 A2986 RMK A01 T02830006  RH  017%=      5-min Rain = 0
KPG1 240411Z 04006KT 28/01 A2986 RMK A01 T02810008  RH  017%=      5-min Rain = 0
KPG1 240412Z 04006KT 28/01 A2986 RMK A01 T02780007  RH  017%=      5-min Rain = 0
KPG1 240413Z 04004KT 28/01 A2986 RMK A01 T02770010  RH  018%=      5-min Rain = 0
KPG1 240414Z 05003KT 28/01 A2986 RMK A01 T02750011  RH  018%=      5-min Rain = 0
KPG1 240415Z 07004KT 27/01 A2986 RMK A01 T02730011  RH  018%=      5-min Rain = 0
KPG1 240416Z 08008KT 27/01 A2986 RMK A01 T02740008  RH  018%=      5-min Rain = 0
KPG1 240417Z 08010KT 28/01 A2986 RMK A01 T02790012  RH  018%=      5-min Rain = 0
KPG1 240418Z 09006KT 29/02 A2986 RMK A01 T02890015  RH  017%=      5-min Rain = 0
KPG1 240419Z 07002KT 29/02 A2986 RMK A01 T02940018  RH  017%=      5-min Rain = 0
KPG1 240420Z 07002KT 29/02 A2986 RMK A01 T02940018  RH  017%=      5-min Rain = 0
KPG1 240421Z 11001KT 29/02 A2986 RMK A01 T02930022  RH  018%=      5-min Rain = 0
KPG1 240422Z 05003KT 29/03 A2986 RMK A01 T02910026  RH  018%=      5-min Rain = 0
KPG1 240423Z 06004KT 29/03 A2986 RMK A01 T02910027  RH  018%=      5-min Rain = 0
KPG1 240424Z 05004KT 29/03 A2986 RMK A01 T02930027  RH  018%=      5-min Rain = 0
KPG1 240425Z 03003KT 29/03 A2986 RMK A01 T02930027  RH  018%=      5-min Rain = 0
KPG1 240426Z 01003KT 29/03 A2986 RMK A01 T02910025  RH  018%=      5-min Rain = 0
KPG1 240427Z 02003KT 29/03 A2986 RMK A01 T02890026  RH  018%=      5-min Rain = 0
KPG1 240428Z 03004KT 29/02 A2986 RMK A01 T02860024  RH  019%=      5-min Rain = 0
KPG1 240429Z 03005KT 29/02 A2986 RMK A01 T02860022  RH  018%=      5-min Rain = 0
KPG1 240430Z 02006KT 29/02 A2986 RMK A01 T02860024  RH  019%=      5-min Rain = 0
KPG1 240431Z 01006KT 29/02 A2986 RMK A01 T02850021  RH  018%=      5-min Rain = 0
KPG1 240432Z 02006KT 28/02 A2986 RMK A01 T02840021  RH  018%=      5-min Rain = 0
KPG1 240433Z 03007KT 28/02 A2986 RMK A01 T02840022  RH  019%=      5-min Rain = 0
KPG1 240434Z 02007KT 28/02 A2986 RMK A01 T02840023  RH  019%=      5-min Rain = 0
KPG1 240435Z 02007KT 28/03 A2986 RMK A01 T02840026  RH  019%=      5-min Rain = 0
KPG1 240436Z 02007KT 28/02 A2986 RMK A01 T02820023  RH  019%=      5-min Rain = 0
KPG1 240437Z 02007KT 28/02 A2986 RMK A01 T02820024  RH  019%=      5-min Rain = 0
KPG1 240438Z 02008KT 28/02 A2986 RMK A01 T02810023  RH  019%=      5-min Rain = 0
KPG1 240439Z 02008KT 28/02 A2986 RMK A01 T02810024  RH  019%=      5-min Rain = 0
KPG1 240440Z 02008KT 28/02 A2986 RMK A01 T02810024  RH  019%=      5-min Rain = 0
KPG1 240441Z 02008KT 28/02 A2986 RMK A01 T02800024  RH  019%=      5-min Rain = 0
KPG1 240442Z 02008KT 28/02 A2986 RMK A01 T02800022  RH  019%=      5-min Rain = 0
KPG1 240443Z 03009KT 28/02 A2986 RMK A01 T02810024  RH  019%=      5-min Rain = 0
KPG1 240444Z 02009KT 28/03 A2986 RMK A01 T02820026  RH  019%=      5-min Rain = 0
KPG1 240445Z 02008KT 28/03 A2986 RMK A01 T02820025  RH  019%=      5-min Rain = 0
KPG1 240446Z 02008KT 28/02 A2986 RMK A01 T02820023  RH  019%=      5-min Rain = 0
KPG1 240447Z 02007KT 28/02 A2986 RMK A01 T02830023  RH  019%=      5-min Rain = 0
KPG1 240448Z 02007KT 28/03 A2986 RMK A01 T02820025  RH  019%=      5-min Rain = 0
KPG1 240449Z 01008KT 28/03 A2986 RMK A01 T02790026  RH  020%=      5-min Rain = 0
KPG1 240450Z 01008KT 28/03 A2986 RMK A01 T02780027  RH  020%=      5-min Rain = 0
KPG1 240451Z 01008KT 28/03 A2986 RMK A01 T02750027  RH  020%=      5-min Rain = 0
KPG1 240452Z 01009KT 27/03 A2986 RMK A01 T02720028  RH  021%=      5-min Rain = 0
KPG1 240453Z 01010KT 27/03 A2986 RMK A01 T02720026  RH  020%=      5-min Rain = 0
KPG1 240454Z 00011KT 28/02 A2986 RMK A01 T02770024  RH  020%=      5-min Rain = 0
KPG1 240455Z 00012KT 28/02 A2986 RMK A01 T02840023  RH  019%=      5-min Rain = 0
KPG1 240456Z 00012KT 29/02 A2986 RMK A01 T02890024  RH  018%=      5-min Rain = 0
KPG1 240457Z 01012KT 29/02 A2986 RMK A01 T02920023  RH  018%=      5-min Rain = 0
KPG1 240458Z 01011KT 29/02 A2986 RMK A01 T02920020  RH  017%=      5-min Rain = 0
KPG1 240459Z 01010KT 29/02 A2986 RMK A01 T02920019  RH  017%=      5-min Rain = 0

Page generated in 0.1502 seconds.